Observation data for JA Ranch on 11/14/2019      Previous  Date  Next       Current Mesonet Observations  Soil Data  Daily Summary Page  Observations in Plain Language
KPD3 140600Z 35008KT 02/M04 A3013 RMK A01 T00221038  RH  065%=      5-min Rain = 0
KPD3 140601Z 35008KT 02/M04 A3013 RMK A01 T00221038  RH  065%=      5-min Rain = 0
KPD3 140602Z 35008KT 02/M04 A3013 RMK A01 T00211039  RH  065%=      5-min Rain = 0
KPD3 140603Z 35008KT 02/M04 A3013 RMK A01 T00221039  RH  064%=      5-min Rain = 0
KPD3 140604Z 35008KT 02/M04 A3013 RMK A01 T00231038  RH  064%=      5-min Rain = 0
KPD3 140605Z 35007KT 02/M04 A3013 RMK A01 T00241039  RH  063%=      5-min Rain = 0
KPD3 140606Z 35007KT 03/M04 A3013 RMK A01 T00251039  RH  063%=      5-min Rain = 0
KPD3 140607Z 35007KT 03/M04 A3013 RMK A01 T00251039  RH  063%=      5-min Rain = 0
KPD3 140608Z 36007KT 02/M04 A3013 RMK A01 T00241039  RH  063%=      5-min Rain = 0
KPD3 140609Z 36007KT 02/M04 A3013 RMK A01 T00241039  RH  063%=      5-min Rain = 0
KPD3 140610Z 36007KT 03/M04 A3013 RMK A01 T00251039  RH  063%=      5-min Rain = 0
KPD3 140611Z 36006KT 03/M04 A3013 RMK A01 T00251039  RH  063%=      5-min Rain = 0
KPD3 140612Z 36006KT 03/M04 A3013 RMK A01 T00251039  RH  063%=      5-min Rain = 0
KPD3 140613Z 35007KT 02/M04 A3013 RMK A01 T00241039  RH  063%=      5-min Rain = 0
KPD3 140614Z 35007KT 02/M04 A3013 RMK A01 T00231040  RH  063%=      5-min Rain = 0
KPD3 140615Z 35008KT 02/M04 A3013 RMK A01 T00221040  RH  063%=      5-min Rain = 0
KPD3 140616Z 35008KT 02/M04 A3013 RMK A01 T00211040  RH  064%=      5-min Rain = 0
KPD3 140617Z 35008KT 02/M04 A3014 RMK A01 T00211040  RH  064%=      5-min Rain = 0
KPD3 140618Z 35008KT 02/M04 A3014 RMK A01 T00201040  RH  064%=      5-min Rain = 0
KPD3 140619Z 34008KT 02/M04 A3014 RMK A01 T00191041  RH  064%=      5-min Rain = 0
KPD3 140620Z 34008KT 02/M04 A3014 RMK A01 T00191041  RH  065%=      5-min Rain = 0
KPD3 140621Z 34008KT 02/M04 A3014 RMK A01 T00181041  RH  065%=      5-min Rain = 0
KPD3 140622Z 34008KT 02/M04 A3014 RMK A01 T00181041  RH  065%=      5-min Rain = 0
KPD3 140623Z 34008KT 02/M04 A3014 RMK A01 T00171041  RH  065%=      5-min Rain = 0
KPD3 140624Z 34008KT 02/M04 A3014 RMK A01 T00171041  RH  065%=      5-min Rain = 0
KPD3 140625Z 34009KT 02/M04 A3014 RMK A01 T00161042  RH  065%=      5-min Rain = 0
KPD3 140626Z 34009KT 02/M04 A3014 RMK A01 T00161042  RH  066%=      5-min Rain = 0
KPD3 140627Z 33009KT 02/M04 A3014 RMK A01 T00151042  RH  066%=      5-min Rain = 0
KPD3 140628Z 33009KT 01/M04 A3014 RMK A01 T00141042  RH  066%=      5-min Rain = 0
KPD3 140629Z 33009KT 01/M04 A3014 RMK A01 T00141042  RH  066%=      5-min Rain = 0
KPD3 140630Z 33009KT 01/M04 A3014 RMK A01 T00141042  RH  066%=      5-min Rain = 0
KPD3 140631Z 33009KT 01/M04 A3014 RMK A01 T00131043  RH  067%=      5-min Rain = 0
KPD3 140632Z 33009KT 01/M04 A3014 RMK A01 T00121043  RH  067%=      5-min Rain = 0
KPD3 140633Z 33009KT 01/M04 A3014 RMK A01 T00111044  RH  067%=      5-min Rain = 0
KPD3 140634Z 33009KT 01/M04 A3014 RMK A01 T00101044  RH  067%=      5-min Rain = 0
KPD3 140635Z 33009KT 01/M04 A3014 RMK A01 T00101044  RH  067%=      5-min Rain = 0
KPD3 140636Z 33009KT 01/M04 A3014 RMK A01 T00101043  RH  068%=      5-min Rain = 0
KPD3 140637Z 33008KT 01/M04 A3014 RMK A01 T00091044  RH  068%=      5-min Rain = 0
KPD3 140638Z 33008KT 01/M04 A3014 RMK A01 T00091044  RH  068%=      5-min Rain = 0
KPD3 140639Z 33008KT 01/M04 A3014 RMK A01 T00081043  RH  068%=      5-min Rain = 0
KPD3 140640Z 33008KT 01/M04 A3015 RMK A01 T00081043  RH  068%=      5-min Rain = 0
KPD3 140641Z 33009KT 01/M04 A3015 RMK A01 T00081043  RH  069%=      5-min Rain = 0
KPD3 140642Z 33009KT 01/M04 A3015 RMK A01 T00091042  RH  068%=      5-min Rain = 0
KPD3 140643Z 33010KT 01/M04 A3015 RMK A01 T00101042  RH  068%=      5-min Rain = 0
KPD3 140644Z 33010KT 01/M04 A3015 RMK A01 T00111042  RH  068%=      5-min Rain = 0
KPD3 140645Z 33010KT 01/M04 A3015 RMK A01 T00131041  RH  067%=      5-min Rain = 0
KPD3 140646Z 33009KT 01/M04 A3015 RMK A01 T00141041  RH  067%=      5-min Rain = 0
KPD3 140647Z 33009KT 02/M04 A3015 RMK A01 T00151041  RH  067%=      5-min Rain = 0
KPD3 140648Z 33008KT 02/M04 A3015 RMK A01 T00151041  RH  067%=      5-min Rain = 0
KPD3 140649Z 33008KT 02/M04 A3015 RMK A01 T00161040  RH  066%=      5-min Rain = 0
KPD3 140650Z 33009KT 02/M04 A3015 RMK A01 T00161040  RH  066%=      5-min Rain = 0
KPD3 140651Z 33009KT 02/M04 A3015 RMK A01 T00171040  RH  066%=      5-min Rain = 0
KPD3 140652Z 33009KT 02/M04 A3015 RMK A01 T00171039  RH  066%=      5-min Rain = 0
KPD3 140653Z 33010KT 02/M04 A3015 RMK A01 T00171039  RH  066%=      5-min Rain = 0
KPD3 140654Z 33010KT 02/M04 A3015 RMK A01 T00171040  RH  066%=      5-min Rain = 0
KPD3 140655Z 33010KT 02/M04 A3015 RMK A01 T00171040  RH  066%=      5-min Rain = 0
KPD3 140656Z 33010KT 02/M04 A3015 RMK A01 T00181039  RH  066%=      5-min Rain = 0
KPD3 140657Z 33010KT 02/M04 A3015 RMK A01 T00181039  RH  066%=      5-min Rain = 0
KPD3 140658Z 33009KT 02/M04 A3015 RMK A01 T00181039  RH  066%=      5-min Rain = 0
KPD3 140659Z 33009KT 02/M04 A3015 RMK A01 T00191039  RH  066%=      5-min Rain = 0
KPD3 140700Z 33009KT 02/M04 A3016 RMK A01 T00181039  RH  066%=      5-min Rain = 0
KPD3 140701Z 33010KT 02/M04 A3016 RMK A01 T00191039  RH  066%=      5-min Rain = 0
KPD3 140702Z 33010KT 02/M04 A3016 RMK A01 T00201038  RH  065%=      5-min Rain = 0
KPD3 140703Z 33010KT 02/M04 A3016 RMK A01 T00211038  RH  065%=      5-min Rain = 0
KPD3 140704Z 33009KT 02/M04 A3016 RMK A01 T00221038  RH  065%=      5-min Rain = 0
KPD3 140705Z 33009KT 02/M04 A3016 RMK A01 T00231038  RH  064%=      5-min Rain = 0
KPD3 140706Z 33009KT 02/M04 A3016 RMK A01 T00231038  RH  064%=      5-min Rain = 0
KPD3 140707Z 33009KT 02/M04 A3016 RMK A01 T00241038  RH  064%=      5-min Rain = 0
KPD3 140708Z 33008KT 02/M04 A3016 RMK A01 T00241038  RH  064%=      5-min Rain = 0
KPD3 140709Z 33008KT 02/M04 A3016 RMK A01 T00241039  RH  064%=      5-min Rain = 0
KPD3 140710Z 33008KT 02/M04 A3016 RMK A01 T00231039  RH  063%=      5-min Rain = 0
KPD3 140711Z 33008KT 02/M04 A3016 RMK A01 T00241039  RH  063%=      5-min Rain = 0
KPD3 140712Z 33008KT 02/M04 A3016 RMK A01 T00241039  RH  063%=      5-min Rain = 0
KPD3 140713Z 33008KT 02/M04 A3016 RMK A01 T00231039  RH  063%=      5-min Rain = 0
KPD3 140714Z 32008KT 02/M04 A3016 RMK A01 T00231039  RH  063%=      5-min Rain = 0
KPD3 140715Z 33007KT 02/M04 A3016 RMK A01 T00231040  RH  064%=      5-min Rain = 0
KPD3 140716Z 33008KT 02/M04 A3016 RMK A01 T00221040  RH  064%=      5-min Rain = 0
KPD3 140717Z 33008KT 02/M04 A3016 RMK A01 T00211040  RH  064%=      5-min Rain = 0
KPD3 140718Z 33007KT 02/M04 A3016 RMK A01 T00211040  RH  064%=      5-min Rain = 0
KPD3 140719Z 32007KT 02/M04 A3016 RMK A01 T00201040  RH  064%=      5-min Rain = 0
KPD3 140720Z 32006KT 02/M04 A3016 RMK A01 T00201040  RH  064%=      5-min Rain = 0
KPD3 140721Z 32006KT 02/M04 A3016 RMK A01 T00191041  RH  065%=      5-min Rain = 0
KPD3 140722Z 32006KT 02/M04 A3016 RMK A01 T00171042  RH  065%=      5-min Rain = 0
KPD3 140723Z 32007KT 02/M04 A3016 RMK A01 T00171042  RH  065%=      5-min Rain = 0
KPD3 140724Z 32006KT 02/M04 A3016 RMK A01 T00161042  RH  065%=      5-min Rain = 0
KPD3 140725Z 32006KT 02/M04 A3016 RMK A01 T00151042  RH  066%=      5-min Rain = 0
KPD3 140726Z 33006KT 02/M04 A3016 RMK A01 T00151042  RH  066%=      5-min Rain = 0
KPD3 140727Z 33006KT 01/M04 A3016 RMK A01 T00141042  RH  066%=      5-min Rain = 0
KPD3 140728Z 33007KT 01/M04 A3016 RMK A01 T00131043  RH  066%=      5-min Rain = 0
KPD3 140729Z 33007KT 01/M04 A3016 RMK A01 T00131043  RH  066%=      5-min Rain = 0
KPD3 140730Z 33007KT 01/M04 A3016 RMK A01 T00131043  RH  066%=      5-min Rain = 0
KPD3 140731Z 33007KT 01/M04 A3016 RMK A01 T00141043  RH  066%=      5-min Rain = 0
KPD3 140732Z 34006KT 02/M04 A3016 RMK A01 T00151042  RH  066%=      5-min Rain = 0
KPD3 140733Z 34006KT 02/M04 A3016 RMK A01 T00151043  RH  065%=      5-min Rain = 0
KPD3 140734Z 33007KT 02/M04 A3016 RMK A01 T00151043  RH  065%=      5-min Rain = 0
KPD3 140735Z 33007KT 02/M04 A3016 RMK A01 T00151044  RH  065%=      5-min Rain = 0
KPD3 140736Z 34007KT 02/M04 A3016 RMK A01 T00151044  RH  065%=      5-min Rain = 0
KPD3 140737Z 35009KT 02/M04 A3016 RMK A01 T00161044  RH  064%=      5-min Rain = 0
KPD3 140738Z 35010KT 02/M04 A3016 RMK A01 T00181042  RH  064%=      5-min Rain = 0
KPD3 140739Z 36010KT 02/M04 A3016 RMK A01 T00231039  RH  063%=      5-min Rain = 0
KPD3 140740Z 36011KT 03/M04 A3016 RMK A01 T00271038  RH  062%=      5-min Rain = 0
KPD3 140741Z 35010KT 03/M04 A3016 RMK A01 T00321038  RH  060%=      5-min Rain = 0
KPD3 140742Z 36011KT 03/M04 A3016 RMK A01 T00341038  RH  059%=      5-min Rain = 0
KPD3 140743Z 35011KT 04/M04 A3016 RMK A01 T00371038  RH  058%=      5-min Rain = 0
KPD3 140744Z 35011KT 04/M04 A3016 RMK A01 T00381038  RH  057%=      5-min Rain = 0
KPD3 140745Z 35011KT 04/M04 A3016 RMK A01 T00391039  RH  057%=      5-min Rain = 0
KPD3 140746Z 35011KT 04/M04 A3016 RMK A01 T00401039  RH  056%=      5-min Rain = 0
KPD3 140747Z 35011KT 04/M04 A3017 RMK A01 T00411039  RH  056%=      5-min Rain = 0
KPD3 140748Z 35010KT 04/M04 A3016 RMK A01 T00411039  RH  056%=      5-min Rain = 0
KPD3 140749Z 35012KT 04/M04 A3017 RMK A01 T00411039  RH  056%=      5-min Rain = 0
KPD3 140750Z 35011KT 04/M04 A3017 RMK A01 T00411039  RH  056%=      5-min Rain = 0
KPD3 140751Z 35011KT 04/M04 A3017 RMK A01 T00411039  RH  056%=      5-min Rain = 0
KPD3 140752Z 35010KT 04/M04 A3017 RMK A01 T00421039  RH  056%=      5-min Rain = 0
KPD3 140753Z 35010KT 04/M04 A3017 RMK A01 T00421039  RH  056%=      5-min Rain = 0
KPD3 140754Z 35010KT 04/M04 A3017 RMK A01 T00421039  RH  056%=      5-min Rain = 0
KPD3 140755Z 35010KT 04/M04 A3017 RMK A01 T00431038  RH  056%=      5-min Rain = 0
KPD3 140756Z 35010KT 04/M04 A3017 RMK A01 T00441038  RH  055%=      5-min Rain = 0
KPD3 140757Z 35010KT 04/M04 A3017 RMK A01 T00441038  RH  055%=      5-min Rain = 0
KPD3 140758Z 36009KT 04/M04 A3017 RMK A01 T00441038  RH  055%=      5-min Rain = 0
KPD3 140759Z 36010KT 04/M04 A3017 RMK A01 T00441037  RH  055%=      5-min Rain = 0
KPD3 140800Z 36009KT 04/M04 A3018 RMK A01 T00441037  RH  055%=      5-min Rain = 0
KPD3 140801Z 36009KT 05/M04 A3018 RMK A01 T00451037  RH  055%=      5-min Rain = 0
KPD3 140802Z 00010KT 05/M04 A3018 RMK A01 T00451037  RH  056%=      5-min Rain = 0
KPD3 140803Z 00009KT 05/M04 A3018 RMK A01 T00451036  RH  055%=      5-min Rain = 0
KPD3 140804Z 00010KT 05/M04 A3018 RMK A01 T00461036  RH  055%=      5-min Rain = 0
KPD3 140805Z 00010KT 05/M04 A3018 RMK A01 T00461035  RH  055%=      5-min Rain = 0
KPD3 140806Z 00010KT 05/M04 A3018 RMK A01 T00471035  RH  055%=      5-min Rain = 0
KPD3 140807Z 01009KT 05/M04 A3018 RMK A01 T00471035  RH  055%=      5-min Rain = 0
KPD3 140808Z 01009KT 05/M03 A3018 RMK A01 T00481034  RH  055%=      5-min Rain = 0
KPD3 140809Z 01009KT 05/M03 A3018 RMK A01 T00481034  RH  055%=      5-min Rain = 0
KPD3 140810Z 01010KT 05/M03 A3018 RMK A01 T00481034  RH  055%=      5-min Rain = 0
KPD3 140811Z 01009KT 05/M03 A3018 RMK A01 T00491034  RH  055%=      5-min Rain = 0
KPD3 140812Z 00009KT 05/M03 A3018 RMK A01 T00491034  RH  055%=      5-min Rain = 0
KPD3 140813Z 00010KT 05/M03 A3018 RMK A01 T00491034  RH  055%=      5-min Rain = 0
KPD3 140814Z 00010KT 05/M03 A3018 RMK A01 T00481034  RH  055%=      5-min Rain = 0
KPD3 140815Z 00009KT 05/M03 A3018 RMK A01 T00481034  RH  055%=      5-min Rain = 0
KPD3 140816Z 00010KT 05/M03 A3018 RMK A01 T00481034  RH  056%=      5-min Rain = 0
KPD3 140817Z 00010KT 05/M03 A3018 RMK A01 T00481033  RH  056%=      5-min Rain = 0
KPD3 140818Z 01010KT 05/M03 A3018 RMK A01 T00481033  RH  056%=      5-min Rain = 0
KPD3 140819Z 01010KT 05/M03 A3018 RMK A01 T00481033  RH  055%=      5-min Rain = 0
KPD3 140820Z 01010KT 05/M03 A3018 RMK A01 T00481033  RH  056%=      5-min Rain = 0
KPD3 140821Z 01010KT 05/M03 A3018 RMK A01 T00491033  RH  056%=      5-min Rain = 0
KPD3 140822Z 01011KT 05/M03 A3018 RMK A01 T00491033  RH  056%=      5-min Rain = 0
KPD3 140823Z 01010KT 05/M03 A3018 RMK A01 T00501032  RH  055%=      5-min Rain = 0
KPD3 140824Z 01009KT 05/M03 A3018 RMK A01 T00501032  RH  055%=      5-min Rain = 0
KPD3 140825Z 01010KT 05/M03 A3018 RMK A01 T00501032  RH  055%=      5-min Rain = 0
KPD3 140826Z 01009KT 05/M03 A3018 RMK A01 T00491032  RH  056%=      5-min Rain = 0
KPD3 140827Z 01010KT 05/M03 A3018 RMK A01 T00491032  RH  056%=      5-min Rain = 0
KPD3 140828Z 01009KT 05/M03 A3018 RMK A01 T00491032  RH  056%=      5-min Rain = 0
KPD3 140829Z 01009KT 05/M03 A3018 RMK A01 T00491032  RH  056%=      5-min Rain = 0
KPD3 140830Z 01009KT 05/M03 A3018 RMK A01 T00491032  RH  056%=      5-min Rain = 0
KPD3 140831Z 01008KT 05/M03 A3018 RMK A01 T00491032  RH  056%=      5-min Rain = 0
KPD3 140832Z 01008KT 05/M03 A3018 RMK A01 T00471032  RH  056%=      5-min Rain = 0
KPD3 140833Z 01008KT 05/M03 A3018 RMK A01 T00471032  RH  057%=      5-min Rain = 0
KPD3 140834Z 01008KT 05/M03 A3019 RMK A01 T00461032  RH  057%=      5-min Rain = 0
KPD3 140835Z 01007KT 05/M03 A3019 RMK A01 T00461032  RH  057%=      5-min Rain = 0
KPD3 140836Z 01007KT 04/M03 A3019 RMK A01 T00441032  RH  057%=      5-min Rain = 0
KPD3 140837Z 01007KT 04/M03 A3019 RMK A01 T00441032  RH  058%=      5-min Rain = 0
KPD3 140838Z 01006KT 04/M03 A3019 RMK A01 T00441032  RH  058%=      5-min Rain = 0
KPD3 140839Z 00008KT 04/M03 A3019 RMK A01 T00431032  RH  058%=      5-min Rain = 0
KPD3 140840Z 01007KT 04/M03 A3019 RMK A01 T00431032  RH  058%=      5-min Rain = 0
KPD3 140841Z 00007KT 04/M03 A3019 RMK A01 T00421032  RH  058%=      5-min Rain = 0
KPD3 140842Z 00007KT 04/M03 A3019 RMK A01 T00421032  RH  059%=      5-min Rain = 0
KPD3 140843Z 00006KT 04/M03 A3019 RMK A01 T00421032  RH  059%=      5-min Rain = 0
KPD3 140844Z 00007KT 04/M03 A3019 RMK A01 T00411032  RH  059%=      5-min Rain = 0
KPD3 140845Z 00007KT 04/M03 A3019 RMK A01 T00411032  RH  059%=      5-min Rain = 0
KPD3 140846Z 00006KT 04/M03 A3019 RMK A01 T00411032  RH  059%=      5-min Rain = 0
KPD3 140847Z 00007KT 04/M03 A3019 RMK A01 T00401032  RH  059%=      5-min Rain = 0
KPD3 140848Z 36007KT 04/M03 A3019 RMK A01 T00391032  RH  060%=      5-min Rain = 0
KPD3 140849Z 36007KT 04/M03 A3019 RMK A01 T00391032  RH  060%=      5-min Rain = 0
KPD3 140850Z 36007KT 04/M03 A3019 RMK A01 T00391032  RH  060%=      5-min Rain = 0
KPD3 140851Z 00007KT 04/M03 A302 RMK A01 T00381032  RH  060%=      5-min Rain = 0
KPD3 140852Z 36007KT 04/M03 A302 RMK A01 T00381032  RH  060%=      5-min Rain = 0
KPD3 140853Z 36007KT 04/M03 A302 RMK A01 T00381032  RH  060%=      5-min Rain = 0
KPD3 140854Z 36007KT 04/M03 A302 RMK A01 T00381032  RH  061%=      5-min Rain = 0
KPD3 140855Z 36007KT 04/M03 A302 RMK A01 T00371032  RH  061%=      5-min Rain = 0
KPD3 140856Z 36007KT 04/M03 A302 RMK A01 T00371031  RH  061%=      5-min Rain = 0
KPD3 140857Z 35007KT 04/M03 A302 RMK A01 T00371032  RH  061%=      5-min Rain = 0
KPD3 140858Z 36007KT 04/M03 A302 RMK A01 T00371032  RH  061%=      5-min Rain = 0
KPD3 140859Z 36007KT 04/M03 A302 RMK A01 T00371032  RH  061%=      5-min Rain = 0
KPD3 140900Z 36007KT 04/M03 A302 RMK A01 T00361032  RH  061%=      5-min Rain = 0
KPD3 140901Z 35006KT 04/M03 A302 RMK A01 T00361032  RH  061%=      5-min Rain = 0
KPD3 140902Z 36006KT 04/M03 A302 RMK A01 T00351032  RH  061%=      5-min Rain = 0
KPD3 140903Z 36006KT 04/M03 A302 RMK A01 T00351032  RH  062%=      5-min Rain = 0
KPD3 140904Z 36006KT 04/M03 A302 RMK A01 T00351032  RH  062%=      5-min Rain = 0
KPD3 140905Z 36006KT 04/M03 A302 RMK A01 T00351032  RH  062%=      5-min Rain = 0
KPD3 140906Z 35006KT 03/M03 A302 RMK A01 T00341033  RH  062%=      5-min Rain = 0
KPD3 140907Z 35006KT 03/M03 A302 RMK A01 T00341033  RH  062%=      5-min Rain = 0
KPD3 140908Z 36006KT 03/M03 A302 RMK A01 T00331034  RH  062%=      5-min Rain = 0
KPD3 140909Z 36007KT 03/M03 A302 RMK A01 T00321034  RH  062%=      5-min Rain = 0
KPD3 140910Z 36007KT 03/M03 A302 RMK A01 T00321034  RH  062%=      5-min Rain = 0
KPD3 140911Z 36006KT 03/M03 A302 RMK A01 T00311034  RH  062%=      5-min Rain = 0
KPD3 140912Z 35006KT 03/M04 A302 RMK A01 T00301035  RH  062%=      5-min Rain = 0
KPD3 140913Z 36007KT 03/M04 A302 RMK A01 T00301035  RH  062%=      5-min Rain = 0
KPD3 140914Z 36006KT 03/M04 A302 RMK A01 T00291035  RH  063%=      5-min Rain = 0
KPD3 140915Z 36007KT 03/M04 A302 RMK A01 T00291035  RH  063%=      5-min Rain = 0
KPD3 140916Z 36006KT 03/M04 A302 RMK A01 T00291035  RH  063%=      5-min Rain = 0
KPD3 140917Z 36007KT 03/M04 A3021 RMK A01 T00291035  RH  063%=      5-min Rain = 0
KPD3 140918Z 36007KT 03/M04 A3021 RMK A01 T00291035  RH  063%=      5-min Rain = 0
KPD3 140919Z 36006KT 03/M04 A3021 RMK A01 T00281036  RH  063%=      5-min Rain = 0
KPD3 140920Z 36006KT 03/M04 A3021 RMK A01 T00271036  RH  063%=      5-min Rain = 0
KPD3 140921Z 36006KT 03/M04 A3021 RMK A01 T00271036  RH  063%=      5-min Rain = 0
KPD3 140922Z 36006KT 03/M04 A3021 RMK A01 T00271036  RH  063%=      5-min Rain = 0
KPD3 140923Z 36006KT 03/M04 A3021 RMK A01 T00261036  RH  063%=      5-min Rain = 0
KPD3 140924Z 00006KT 03/M04 A3021 RMK A01 T00271036  RH  063%=      5-min Rain = 0
KPD3 140925Z 36006KT 03/M04 A3021 RMK A01 T00271037  RH  063%=      5-min Rain = 0
KPD3 140926Z 36006KT 03/M04 A3021 RMK A01 T00271037  RH  063%=      5-min Rain = 0
KPD3 140927Z 36005KT 03/M04 A3021 RMK A01 T00261037  RH  063%=      5-min Rain = 0
KPD3 140928Z 36005KT 03/M04 A3021 RMK A01 T00261037  RH  063%=      5-min Rain = 0
KPD3 140929Z 36005KT 03/M04 A3021 RMK A01 T00261037  RH  063%=      5-min Rain = 0
KPD3 140930Z 00005KT 03/M04 A3021 RMK A01 T00251038  RH  063%=      5-min Rain = 0
KPD3 140931Z 00005KT 03/M04 A3021 RMK A01 T00251038  RH  063%=      5-min Rain = 0
KPD3 140932Z 00005KT 03/M04 A3021 RMK A01 T00251038  RH  063%=      5-min Rain = 0
KPD3 140933Z 00005KT 03/M04 A3021 RMK A01 T00251038  RH  063%=      5-min Rain = 0
KPD3 140934Z 00005KT 03/M04 A3021 RMK A01 T00251038  RH  063%=      5-min Rain = 0
KPD3 140935Z 00005KT 03/M04 A3021 RMK A01 T00251039  RH  063%=      5-min Rain = 0
KPD3 140936Z 00005KT 03/M04 A3021 RMK A01 T00251038  RH  063%=      5-min Rain = 0
KPD3 140937Z 00005KT 02/M04 A3021 RMK A01 T00241038  RH  063%=      5-min Rain = 0
KPD3 140938Z 01005KT 02/M04 A3021 RMK A01 T00241039  RH  063%=      5-min Rain = 0
KPD3 140939Z 01005KT 02/M04 A3021 RMK A01 T00241039  RH  063%=      5-min Rain = 0
KPD3 140940Z 01005KT 02/M04 A3021 RMK A01 T00231039  RH  063%=      5-min Rain = 0
KPD3 140941Z 01004KT 02/M04 A3021 RMK A01 T00221040  RH  064%=      5-min Rain = 0
KPD3 140942Z 01004KT 02/M04 A3021 RMK A01 T00211040  RH  064%=      5-min Rain = 0
KPD3 140943Z 01004KT 02/M04 A3022 RMK A01 T00211040  RH  064%=      5-min Rain = 0
KPD3 140944Z 00005KT 02/M04 A3022 RMK A01 T00211040  RH  064%=      5-min Rain = 0
KPD3 140945Z 00005KT 02/M04 A3022 RMK A01 T00211040  RH  064%=      5-min Rain = 0
KPD3 140946Z 00005KT 02/M04 A3022 RMK A01 T00221039  RH  064%=      5-min Rain = 0
KPD3 140947Z 36005KT 02/M04 A3022 RMK A01 T00221040  RH  064%=      5-min Rain = 0
KPD3 140948Z 00006KT 02/M04 A3022 RMK A01 T00221039  RH  064%=      5-min Rain = 0
KPD3 140949Z 36006KT 02/M04 A3022 RMK A01 T00221039  RH  064%=      5-min Rain = 0
KPD3 140950Z 36006KT 02/M04 A3022 RMK A01 T00211039  RH  064%=      5-min Rain = 0
KPD3 140951Z 00006KT 02/M04 A3022 RMK A01 T00211039  RH  064%=      5-min Rain = 0
KPD3 140952Z 00005KT 02/M04 A3022 RMK A01 T00211039  RH  065%=      5-min Rain = 0
KPD3 140953Z 00006KT 02/M04 A3022 RMK A01 T00221037  RH  065%=      5-min Rain = 0
KPD3 140954Z 36006KT 02/M04 A3022 RMK A01 T00221037  RH  065%=      5-min Rain = 0
KPD3 140955Z 36006KT 02/M04 A3022 RMK A01 T00231036  RH  065%=      5-min Rain = 0
KPD3 140956Z 00006KT 02/M04 A3022 RMK A01 T00241036  RH  065%=      5-min Rain = 0
KPD3 140957Z 01006KT 02/M04 A3022 RMK A01 T00241035  RH  065%=      5-min Rain = 0
KPD3 140958Z 00007KT 02/M03 A3022 RMK A01 T00241034  RH  065%=      5-min Rain = 0
KPD3 140959Z 00006KT 03/M03 A3022 RMK A01 T00251034  RH  065%=      5-min Rain = 0
KPD3 141000Z 00006KT 03/M03 A3022 RMK A01 T00251033  RH  065%=      5-min Rain = 0
KPD3 141001Z 00006KT 03/M03 A3022 RMK A01 T00251033  RH  065%=      5-min Rain = 0
KPD3 141002Z 36006KT 03/M03 A3023 RMK A01 T00251033  RH  066%=      5-min Rain = 0
KPD3 141003Z 36006KT 03/M03 A3023 RMK A01 T00251032  RH  066%=      5-min Rain = 0
KPD3 141004Z 36006KT 03/M03 A3023 RMK A01 T00261031  RH  066%=      5-min Rain = 0
KPD3 141005Z 36006KT 03/M03 A3023 RMK A01 T00271031  RH  066%=      5-min Rain = 0
KPD3 141006Z 35006KT 03/M03 A3023 RMK A01 T00271031  RH  066%=      5-min Rain = 0
KPD3 141007Z 36007KT 03/M03 A3023 RMK A01 T00281031  RH  065%=      5-min Rain = 0
KPD3 141008Z 36007KT 03/M03 A3023 RMK A01 T00281031  RH  065%=      5-min Rain = 0
KPD3 141009Z 36007KT 03/M03 A3023 RMK A01 T00281031  RH  065%=      5-min Rain = 0
KPD3 141010Z 36007KT 03/M03 A3023 RMK A01 T00281030  RH  065%=      5-min Rain = 0
KPD3 141011Z 36006KT 03/M03 A3023 RMK A01 T00281030  RH  065%=      5-min Rain = 0
KPD3 141012Z 35007KT 03/M03 A3023 RMK A01 T00281031  RH  065%=      5-min Rain = 0
KPD3 141013Z 00006KT 03/M03 A3023 RMK A01 T00281030  RH  066%=      5-min Rain = 0
KPD3 141014Z 00007KT 03/M03 A3023 RMK A01 T00281030  RH  066%=      5-min Rain = 0
KPD3 141015Z 00007KT 03/M03 A3023 RMK A01 T00281030  RH  066%=      5-min Rain = 0
KPD3 141016Z 00007KT 03/M03 A3023 RMK A01 T00271030  RH  066%=      5-min Rain = 0
KPD3 141017Z 01006KT 03/M03 A3023 RMK A01 T00261030  RH  066%=      5-min Rain = 0
KPD3 141018Z 01006KT 03/M03 A3023 RMK A01 T00261030  RH  067%=      5-min Rain = 0
KPD3 141019Z 01006KT 03/M03 A3023 RMK A01 T00261030  RH  067%=      5-min Rain = 0
KPD3 141020Z 01006KT 03/M03 A3023 RMK A01 T00251030  RH  067%=      5-min Rain = 0
KPD3 141021Z 01006KT 02/M03 A3023 RMK A01 T00241030  RH  067%=      5-min Rain = 0
KPD3 141022Z 01006KT 02/M03 A3023 RMK A01 T00241030  RH  068%=      5-min Rain = 0
KPD3 141023Z 00006KT 02/M03 A3023 RMK A01 T00231030  RH  068%=      5-min Rain = 0
KPD3 141024Z 00006KT 02/M03 A3023 RMK A01 T00231030  RH  068%=      5-min Rain = 0
KPD3 141025Z 00006KT 02/M03 A3023 RMK A01 T00221030  RH  068%=      5-min Rain = 0
KPD3 141026Z 00006KT 02/M03 A3023 RMK A01 T00221030  RH  069%=      5-min Rain = 0
KPD3 141027Z 00005KT 02/M03 A3024 RMK A01 T00211030  RH  069%=      5-min Rain = 0
KPD3 141028Z 00005KT 02/M03 A3024 RMK A01 T00211029  RH  069%=      5-min Rain = 0
KPD3 141029Z 01005KT 02/M03 A3024 RMK A01 T00211029  RH  069%=      5-min Rain = 0
KPD3 141030Z 01005KT 02/M03 A3024 RMK A01 T00211029  RH  069%=      5-min Rain = 0
KPD3 141031Z 01005KT 02/M03 A3024 RMK A01 T00211029  RH  069%=      5-min Rain = 0
KPD3 141032Z 01004KT 02/M03 A3024 RMK A01 T00201030  RH  069%=      5-min Rain = 0
KPD3 141033Z 02005KT 02/M03 A3024 RMK A01 T00201030  RH  070%=      5-min Rain = 0
KPD3 141034Z 02004KT 02/M03 A3024 RMK A01 T00211029  RH  069%=      5-min Rain = 0
KPD3 141035Z 01004KT 02/M03 A3024 RMK A01 T00211030  RH  069%=      5-min Rain = 0
KPD3 141036Z 01005KT 02/M03 A3024 RMK A01 T00201030  RH  070%=      5-min Rain = 0
KPD3 141037Z 01004KT 02/M03 A3024 RMK A01 T00201030  RH  070%=      5-min Rain = 0
KPD3 141038Z 01004KT 02/M03 A3024 RMK A01 T00201030  RH  070%=      5-min Rain = 0
KPD3 141039Z 00004KT 02/M03 A3024 RMK A01 T00191030  RH  070%=      5-min Rain = 0
KPD3 141040Z 00004KT 02/M03 A3024 RMK A01 T00191030  RH  070%=      5-min Rain = 0
KPD3 141041Z 00003KT 02/M03 A3024 RMK A01 T00181029  RH  070%=      5-min Rain = 0
KPD3 141042Z 00003KT 02/M03 A3024 RMK A01 T00181029  RH  071%=      5-min Rain = 0
KPD3 141043Z 01003KT 02/M03 A3024 RMK A01 T00181029  RH  071%=      5-min Rain = 0
KPD3 141044Z 00003KT 02/M03 A3024 RMK A01 T00181029  RH  071%=      5-min Rain = 0
KPD3 141045Z 00003KT 02/M03 A3024 RMK A01 T00181029  RH  071%=      5-min Rain = 0
KPD3 141046Z 36003KT 02/M03 A3024 RMK A01 T00181029  RH  071%=      5-min Rain = 0
KPD3 141047Z 36004KT 02/M03 A3024 RMK A01 T00181029  RH  071%=      5-min Rain = 0
KPD3 141048Z 36004KT 02/M03 A3024 RMK A01 T00181029  RH  071%=      5-min Rain = 0
KPD3 141049Z 36005KT 02/M03 A3024 RMK A01 T00191028  RH  071%=      5-min Rain = 0
KPD3 141050Z 36005KT 02/M03 A3024 RMK A01 T00201027  RH  071%=      5-min Rain = 0
KPD3 141051Z 36005KT 02/M03 A3024 RMK A01 T00211028  RH  070%=      5-min Rain = 0
KPD3 141052Z 36005KT 02/M03 A3024 RMK A01 T00221028  RH  070%=      5-min Rain = 0
KPD3 141053Z 36005KT 02/M03 A3024 RMK A01 T00201030  RH  069%=      5-min Rain = 0
KPD3 141054Z 36005KT 02/M03 A3024 RMK A01 T00181032  RH  070%=      5-min Rain = 0
KPD3 141055Z 36005KT 02/M03 A3024 RMK A01 T00151032  RH  071%=      5-min Rain = 0
KPD3 141056Z 36005KT 01/M03 A3024 RMK A01 T00131033  RH  071%=      5-min Rain = 0
KPD3 141057Z 36005KT 01/M03 A3024 RMK A01 T00121033  RH  072%=      5-min Rain = 0
KPD3 141058Z 00005KT 01/M03 A3024 RMK A01 T00101033  RH  073%=      5-min Rain = 0
KPD3 141059Z 36005KT 01/M03 A3024 RMK A01 T00101032  RH  074%=      5-min Rain = 0
KPD3 141100Z 35006KT 01/M03 A3024 RMK A01 T00091032  RH  074%=      5-min Rain = 0
KPD3 141101Z 35005KT 01/M03 A3024 RMK A01 T00091032  RH  074%=      5-min Rain = 0
KPD3 141102Z 35006KT 01/M03 A3024 RMK A01 T00091032  RH  074%=      5-min Rain = 0
KPD3 141103Z 35006KT 01/M03 A3024 RMK A01 T00081032  RH  074%=      5-min Rain = 0
KPD3 141104Z 35006KT 01/M03 A3024 RMK A01 T00071033  RH  074%=      5-min Rain = 0
KPD3 141105Z 35006KT 01/M03 A3024 RMK A01 T00061034  RH  075%=      5-min Rain = 0
KPD3 141106Z 35006KT 01/M03 A3024 RMK A01 T00051034  RH  075%=      5-min Rain = 0
KPD3 141107Z 35006KT 00/M03 A3024 RMK A01 T00041034  RH  076%=      5-min Rain = 0
KPD3 141108Z 35006KT 00/M04 A3024 RMK A01 T00031035  RH  076%=      5-min Rain = 0
KPD3 141109Z 35006KT 00/M04 A3024 RMK A01 T00021035  RH  076%=      5-min Rain = 0
KPD3 141110Z 35006KT 00/M03 A3024 RMK A01 T00021033  RH  077%=      5-min Rain = 0
KPD3 141111Z 35006KT 00/M03 A3025 RMK A01 T00021033  RH  078%=      5-min Rain = 0
KPD3 141112Z 35005KT 00/M03 A3025 RMK A01 T00031031  RH  078%=      5-min Rain = 0
KPD3 141113Z 35005KT 00/M03 A3025 RMK A01 T00041031  RH  078%=      5-min Rain = 0
KPD3 141114Z 35005KT 01/M03 A3024 RMK A01 T00051030  RH  078%=      5-min Rain = 0
KPD3 141115Z 36005KT 01/M03 A3024 RMK A01 T00051029  RH  078%=      5-min Rain = 0
KPD3 141116Z 36005KT 01/M03 A3024 RMK A01 T00061028  RH  078%=      5-min Rain = 0
KPD3 141117Z 36005KT 01/M03 A3025 RMK A01 T00071027  RH  078%=      5-min Rain = 0
KPD3 141118Z 00005KT 01/M03 A3025 RMK A01 T00071027  RH  078%=      5-min Rain = 0
KPD3 141119Z 36005KT 01/M03 A3025 RMK A01 T00081026  RH  078%=      5-min Rain = 0
KPD3 141120Z 36005KT 01/M03 A3025 RMK A01 T00091026  RH  077%=      5-min Rain = 0
KPD3 141121Z 00005KT 01/M03 A3025 RMK A01 T00101026  RH  077%=      5-min Rain = 0
KPD3 141122Z 00005KT 01/M03 A3025 RMK A01 T00101027  RH  077%=      5-min Rain = 0
KPD3 141123Z 00005KT 01/M03 A3025 RMK A01 T00101027  RH  077%=      5-min Rain = 0
KPD3 141124Z 01005KT 01/M03 A3025 RMK A01 T00101026  RH  077%=      5-min Rain = 0
KPD3 141125Z 00005KT 01/M03 A3025 RMK A01 T00101026  RH  077%=      5-min Rain = 0
KPD3 141126Z 00005KT 01/M03 A3025 RMK A01 T00111026  RH  077%=      5-min Rain = 0
KPD3 141127Z 00005KT 01/M03 A3025 RMK A01 T00101026  RH  076%=      5-min Rain = 0
KPD3 141128Z 00004KT 01/M03 A3025 RMK A01 T00111026  RH  076%=      5-min Rain = 0
KPD3 141129Z 01004KT 01/M03 A3025 RMK A01 T00111025  RH  077%=      5-min Rain = 0
KPD3 141130Z 01004KT 01/M03 A3025 RMK A01 T00111025  RH  077%=      5-min Rain = 0
KPD3 141131Z 00004KT 01/M03 A3025 RMK A01 T00121025  RH  077%=      5-min Rain = 0
KPD3 141132Z 01004KT 01/M02 A3025 RMK A01 T00131024  RH  077%=      5-min Rain = 0
KPD3 141133Z 00004KT 01/M02 A3026 RMK A01 T00141023  RH  076%=      5-min Rain = 0
KPD3 141134Z 01004KT 02/M02 A3026 RMK A01 T00151023  RH  076%=      5-min Rain = 0
KPD3 141135Z 01004KT 02/M02 A3026 RMK A01 T00161023  RH  076%=      5-min Rain = 0
KPD3 141136Z 01004KT 02/M02 A3026 RMK A01 T00161023  RH  075%=      5-min Rain = 0
KPD3 141137Z 01004KT 02/M02 A3026 RMK A01 T00161023  RH  075%=      5-min Rain = 0
KPD3 141138Z 01004KT 02/M02 A3026 RMK A01 T00171023  RH  075%=      5-min Rain = 0
KPD3 141139Z 01004KT 02/M02 A3026 RMK A01 T00171023  RH  075%=      5-min Rain = 0
KPD3 141140Z 01004KT 02/M02 A3026 RMK A01 T00171023  RH  075%=      5-min Rain = 0
KPD3 141141Z 01004KT 02/M02 A3026 RMK A01 T00171023  RH  075%=      5-min Rain = 0
KPD3 141142Z 01004KT 02/M02 A3026 RMK A01 T00171022  RH  075%=      5-min Rain = 0
KPD3 141143Z 01003KT 02/M02 A3026 RMK A01 T00181022  RH  075%=      5-min Rain = 0
KPD3 141144Z 00003KT 02/M02 A3027 RMK A01 T00181022  RH  074%=      5-min Rain = 0
KPD3 141145Z 00003KT 02/M02 A3027 RMK A01 T00191022  RH  074%=      5-min Rain = 0
KPD3 141146Z 36003KT 02/M02 A3027 RMK A01 T00191022  RH  074%=      5-min Rain = 0
KPD3 141147Z 00003KT 02/M02 A3027 RMK A01 T00181023  RH  074%=      5-min Rain = 0
KPD3 141148Z 01003KT 02/M02 A3027 RMK A01 T00171024  RH  074%=      5-min Rain = 0
KPD3 141149Z 01003KT 02/M03 A3027 RMK A01 T00161025  RH  074%=      5-min Rain = 0
KPD3 141150Z 00003KT 02/M02 A3027 RMK A01 T00151024  RH  075%=      5-min Rain = 0
KPD3 141151Z 01003KT 01/M02 A3027 RMK A01 T00141023  RH  076%=      5-min Rain = 0
KPD3 141152Z 01003KT 01/M02 A3027 RMK A01 T00141023  RH  076%=      5-min Rain = 0
KPD3 141153Z 01003KT 01/M02 A3027 RMK A01 T00141023  RH  076%=      5-min Rain = 0
KPD3 141154Z 02003KT 01/M02 A3027 RMK A01 T00141023  RH  076%=      5-min Rain = 0
KPD3 141155Z 01002KT 01/M02 A3027 RMK A01 T00141023  RH  077%=      5-min Rain = 0
KPD3 141156Z 01002KT 01/M02 A3027 RMK A01 T00141022  RH  077%=      5-min Rain = 0
KPD3 141157Z 01002KT 01/M02 A3028 RMK A01 T00141022  RH  077%=      5-min Rain = 0
KPD3 141158Z 01003KT 01/M02 A3028 RMK A01 T00141023  RH  076%=      5-min Rain = 0
KPD3 141159Z 01004KT 01/M02 A3028 RMK A01 T00141023  RH  076%=      5-min Rain = 0
KPD3 141200Z 01003KT 02/M02 A3028 RMK A01 T00151022  RH  076%=      5-min Rain = 0
KPD3 141201Z 01004KT 02/M02 A3028 RMK A01 T00151023  RH  076%=      5-min Rain = 0
KPD3 141202Z 00005KT 02/M02 A3028 RMK A01 T00161024  RH  075%=      5-min Rain = 0
KPD3 141203Z 00005KT 01/M03 A3028 RMK A01 T00141027  RH  074%=      5-min Rain = 0
KPD3 141204Z 36005KT 01/M03 A3028 RMK A01 T00111029  RH  075%=      5-min Rain = 0
KPD3 141205Z 00006KT 01/M03 A3028 RMK A01 T00091030  RH  075%=      5-min Rain = 0
KPD3 141206Z 00006KT 01/M03 A3028 RMK A01 T00071030  RH  076%=      5-min Rain = 0
KPD3 141207Z 36005KT 01/M03 A3028 RMK A01 T00071028  RH  077%=      5-min Rain = 0
KPD3 141208Z 00007KT 01/M03 A3028 RMK A01 T00061028  RH  078%=      5-min Rain = 0
KPD3 141209Z 00006KT 01/M03 A3028 RMK A01 T00051029  RH  078%=      5-min Rain = 0
KPD3 141210Z 00007KT 01/M03 A3029 RMK A01 T00051028  RH  079%=      5-min Rain = 0
KPD3 141211Z 00007KT 01/M03 A3029 RMK A01 T00071026  RH  079%=      5-min Rain = 0
KPD3 141212Z 01007KT 01/M03 A3029 RMK A01 T00071026  RH  078%=      5-min Rain = 0
KPD3 141213Z 01007KT 01/M03 A3029 RMK A01 T00071027  RH  078%=      5-min Rain = 0
KPD3 141214Z 01007KT 01/M03 A3029 RMK A01 T00061027  RH  078%=      5-min Rain = 0
KPD3 141215Z 01007KT 01/M03 A3029 RMK A01 T00061027  RH  079%=      5-min Rain = 0
KPD3 141216Z 01008KT 01/M03 A3029 RMK A01 T00081025  RH  079%=      5-min Rain = 0
KPD3 141217Z 01008KT 01/M02 A3029 RMK A01 T00091024  RH  078%=      5-min Rain = 0
KPD3 141218Z 01008KT 01/M02 A3029 RMK A01 T00101024  RH  078%=      5-min Rain = 0
KPD3 141219Z 01008KT 01/M02 A3029 RMK A01 T00101024  RH  078%=      5-min Rain = 0
KPD3 141220Z 01007KT 01/M03 A3029 RMK A01 T00111025  RH  077%=      5-min Rain = 0
KPD3 141221Z 01007KT 01/M03 A3029 RMK A01 T00101025  RH  077%=      5-min Rain = 0
KPD3 141222Z 01007KT 01/M03 A3029 RMK A01 T00101025  RH  077%=      5-min Rain = 0
KPD3 141223Z 01007KT 01/M02 A3029 RMK A01 T00101024  RH  078%=      5-min Rain = 0
KPD3 141224Z 01006KT 01/M02 A3029 RMK A01 T00101024  RH  078%=      5-min Rain = 0
KPD3 141225Z 01007KT 01/M02 A3029 RMK A01 T00101024  RH  078%=      5-min Rain = 0
KPD3 141226Z 01006KT 01/M02 A3029 RMK A01 T00111023  RH  078%=      5-min Rain = 0
KPD3 141227Z 01006KT 01/M02 A3029 RMK A01 T00121023  RH  077%=      5-min Rain = 0
KPD3 141228Z 02006KT 01/M02 A3029 RMK A01 T00111024  RH  077%=      5-min Rain = 0
KPD3 141229Z 01006KT 01/M02 A3029 RMK A01 T00111024  RH  077%=      5-min Rain = 0
KPD3 141230Z 01006KT 01/M03 A3029 RMK A01 T00111025  RH  077%=      5-min Rain = 0
KPD3 141231Z 01007KT 01/M03 A3029 RMK A01 T00101025  RH  077%=      5-min Rain = 0
KPD3 141232Z 01006KT 01/M03 A303 RMK A01 T00101025  RH  077%=      5-min Rain = 0
KPD3 141233Z 01006KT 01/M03 A303 RMK A01 T00101026  RH  077%=      5-min Rain = 0
KPD3 141234Z 01007KT 01/M03 A303 RMK A01 T00091026  RH  077%=      5-min Rain = 0
KPD3 141235Z 01006KT 01/M03 A303 RMK A01 T00081026  RH  078%=      5-min Rain = 0
KPD3 141236Z 01006KT 01/M03 A303 RMK A01 T00081026  RH  078%=      5-min Rain = 0
KPD3 141237Z 01006KT 01/M03 A303 RMK A01 T00091025  RH  078%=      5-min Rain = 0
KPD3 141238Z 02005KT 01/M03 A303 RMK A01 T00091025  RH  078%=      5-min Rain = 0
KPD3 141239Z 01005KT 01/M03 A303 RMK A01 T00091025  RH  078%=      5-min Rain = 0
KPD3 141240Z 01005KT 01/M03 A303 RMK A01 T00091025  RH  078%=      5-min Rain = 0
KPD3 141241Z 01005KT 01/M03 A303 RMK A01 T00091025  RH  078%=      5-min Rain = 0
KPD3 141242Z 01005KT 01/M03 A303 RMK A01 T00091025  RH  078%=      5-min Rain = 0
KPD3 141243Z 01005KT 01/M03 A303 RMK A01 T00091026  RH  078%=      5-min Rain = 0
KPD3 141244Z 01004KT 01/M03 A303 RMK A01 T00091025  RH  078%=      5-min Rain = 0
KPD3 141245Z 01004KT 01/M03 A303 RMK A01 T00091026  RH  077%=      5-min Rain = 0
KPD3 141246Z 01004KT 01/M03 A303 RMK A01 T00101026  RH  077%=      5-min Rain = 0
KPD3 141247Z 01004KT 01/M03 A303 RMK A01 T00101026  RH  077%=      5-min Rain = 0
KPD3 141248Z 00004KT 01/M03 A303 RMK A01 T00101026  RH  077%=      5-min Rain = 0
KPD3 141249Z 00005KT 01/M03 A303 RMK A01 T00091028  RH  076%=      5-min Rain = 0
KPD3 141250Z 00004KT 01/M03 A3031 RMK A01 T00071029  RH  076%=      5-min Rain = 0
KPD3 141251Z 00004KT 01/M03 A3031 RMK A01 T00051031  RH  076%=      5-min Rain = 0
KPD3 141252Z 00003KT 00/M03 A3031 RMK A01 T00041031  RH  077%=      5-min Rain = 0
KPD3 141253Z 00003KT 00/M03 A3031 RMK A01 T00031031  RH  078%=      5-min Rain = 0
KPD3 141254Z 01003KT 00/M03 A3031 RMK A01 T00021030  RH  079%=      5-min Rain = 0
KPD3 141255Z 36004KT 00/M03 A3031 RMK A01 T00021029  RH  080%=      5-min Rain = 0
KPD3 141256Z 36004KT 00/M03 A3031 RMK A01 T00021028  RH  080%=      5-min Rain = 0
KPD3 141257Z 36004KT 00/M03 A3031 RMK A01 T00031028  RH  080%=      5-min Rain = 0
KPD3 141258Z 00004KT 00/M03 A3031 RMK A01 T00041027  RH  080%=      5-min Rain = 0
KPD3 141259Z 36004KT 01/M03 A3031 RMK A01 T00051027  RH  079%=      5-min Rain = 0
KPD3 141300Z 36005KT 01/M03 A3031 RMK A01 T00061028  RH  078%=      5-min Rain = 0
KPD3 141301Z 35005KT 01/M03 A3031 RMK A01 T00061029  RH  078%=      5-min Rain = 0
KPD3 141302Z 35005KT 01/M03 A3031 RMK A01 T00051029  RH  078%=      5-min Rain = 0
KPD3 141303Z 35005KT 01/M03 A3031 RMK A01 T00051028  RH  078%=      5-min Rain = 0
KPD3 141304Z 35005KT 00/M03 A3031 RMK A01 T00041032  RH  077%=      5-min Rain = 0
KPD3 141305Z 35004KT 00/M04 A3031 RMK A01 T00011035  RH  077%=      5-min Rain = 0
KPD3 141306Z 36005KT M00/M03 A3031 RMK A01 T10011033  RH  079%=      5-min Rain = 0
KPD3 141307Z 35005KT M00/M03 A3031 RMK A01 T10031034  RH  079%=      5-min Rain = 0
KPD3 141308Z 35005KT M00/M03 A3031 RMK A01 T10041034  RH  080%=      5-min Rain = 0
KPD3 141309Z 35005KT M01/M03 A3031 RMK A01 T10051034  RH  080%=      5-min Rain = 0
KPD3 141310Z 35005KT M01/M04 A3032 RMK A01 T10061035  RH  081%=      5-min Rain = 0
KPD3 141311Z 35005KT M01/M04 A3032 RMK A01 T10071035  RH  081%=      5-min Rain = 0
KPD3 141312Z 36005KT M01/M04 A3032 RMK A01 T10081036  RH  081%=      5-min Rain = 0
KPD3 141313Z 35004KT M01/M04 A3032 RMK A01 T10101035  RH  083%=      5-min Rain = 0
KPD3 141314Z 35004KT M01/M04 A3032 RMK A01 T10101035  RH  083%=      5-min Rain = 0
KPD3 141315Z 34005KT M01/M04 A3032 RMK A01 T10111037  RH  083%=      5-min Rain = 0
KPD3 141316Z 34005KT M01/M04 A3032 RMK A01 T10121036  RH  084%=      5-min Rain = 0
KPD3 141317Z 34005KT M01/M04 A3032 RMK A01 T10121035  RH  084%=      5-min Rain = 0
KPD3 141318Z 33005KT M01/M04 A3032 RMK A01 T10121035  RH  084%=      5-min Rain = 0
KPD3 141319Z 34005KT M01/M04 A3032 RMK A01 T10111035  RH  084%=      5-min Rain = 0
KPD3 141320Z 34005KT M01/M04 A3032 RMK A01 T10131037  RH  084%=      5-min Rain = 0
KPD3 141321Z 34005KT M01/M04 A3032 RMK A01 T10141038  RH  084%=      5-min Rain = 0
KPD3 141322Z 34005KT M02/M04 A3033 RMK A01 T10151037  RH  085%=      5-min Rain = 0
KPD3 141323Z 33005KT M02/M04 A3033 RMK A01 T10151037  RH  085%=      5-min Rain = 0
KPD3 141324Z 33005KT M02/M04 A3033 RMK A01 T10151037  RH  085%=      5-min Rain = 0
KPD3 141325Z 33005KT M02/M04 A3033 RMK A01 T10161037  RH  086%=      5-min Rain = 0
KPD3 141326Z 33005KT M02/M04 A3033 RMK A01 T10161036  RH  086%=      5-min Rain = 0
KPD3 141327Z 34005KT M02/M04 A3033 RMK A01 T10161036  RH  086%=      5-min Rain = 0
KPD3 141328Z 33005KT M02/M04 A3033 RMK A01 T10151035  RH  086%=      5-min Rain = 0
KPD3 141329Z 33005KT M02/M04 A3033 RMK A01 T10151035  RH  086%=      5-min Rain = 0
KPD3 141330Z 34005KT M01/M03 A3033 RMK A01 T10141034  RH  086%=      5-min Rain = 0
KPD3 141331Z 34004KT M01/M03 A3033 RMK A01 T10141034  RH  086%=      5-min Rain = 0
KPD3 141332Z 33004KT M01/M03 A3033 RMK A01 T10131033  RH  086%=      5-min Rain = 0
KPD3 141333Z 33004KT M01/M03 A3033 RMK A01 T10131034  RH  086%=      5-min Rain = 0
KPD3 141334Z 33004KT M01/M04 A3033 RMK A01 T10131035  RH  086%=      5-min Rain = 0
KPD3 141335Z 33004KT M01/M04 A3033 RMK A01 T10131035  RH  086%=      5-min Rain = 0
KPD3 141336Z 33004KT M01/M03 A3034 RMK A01 T10131034  RH  086%=      5-min Rain = 0
KPD3 141337Z 33004KT M01/M03 A3034 RMK A01 T10131033  RH  086%=      5-min Rain = 0
KPD3 141338Z 33005KT M01/M03 A3034 RMK A01 T10121032  RH  086%=      5-min Rain = 0
KPD3 141339Z 33005KT M01/M03 A3034 RMK A01 T10111031  RH  086%=      5-min Rain = 0
KPD3 141340Z 33005KT M01/M03 A3034 RMK A01 T10111031  RH  086%=      5-min Rain = 0
KPD3 141341Z 33005KT M01/M03 A3034 RMK A01 T10091030  RH  086%=      5-min Rain = 0
KPD3 141342Z 33005KT M01/M03 A3034 RMK A01 T10091029  RH  086%=      5-min Rain = 0
KPD3 141343Z 33005KT M01/M03 A3034 RMK A01 T10071028  RH  086%=      5-min Rain = 0
KPD3 141344Z 33005KT M01/M03 A3034 RMK A01 T10061027  RH  086%=      5-min Rain = 0
KPD3 141345Z 33005KT M01/M03 A3034 RMK A01 T10051026  RH  086%=      5-min Rain = 0
KPD3 141346Z 33004KT M00/M03 A3034 RMK A01 T10041025  RH  085%=      5-min Rain = 0
KPD3 141347Z 33004KT M00/M03 A3034 RMK A01 T10031025  RH  085%=      5-min Rain = 0
KPD3 141348Z 33004KT M00/M02 A3034 RMK A01 T10011024  RH  085%=      5-min Rain = 0
KPD3 141349Z 33004KT 00/02 A3034 RMK A01 T00-00-23  RH  084%=      5-min Rain = 0
KPD3 141350Z 33004KT 00/M02 A3034 RMK A01 T00011023  RH  084%=      5-min Rain = 0
KPD3 141351Z 31005KT 00/M02 A3035 RMK A01 T00021022  RH  084%=      5-min Rain = 0
KPD3 141352Z 31005KT 00/M02 A3035 RMK A01 T00031021  RH  084%=      5-min Rain = 0
KPD3 141353Z 31005KT 00/M02 A3035 RMK A01 T00041021  RH  083%=      5-min Rain = 0
KPD3 141354Z 31005KT 01/M02 A3035 RMK A01 T00051020  RH  083%=      5-min Rain = 0
KPD3 141355Z 31005KT 01/M02 A3035 RMK A01 T00051022  RH  082%=      5-min Rain = 0
KPD3 141356Z 31004KT 00/M03 A3035 RMK A01 T00041025  RH  081%=      5-min Rain = 0
KPD3 141357Z 30004KT 00/M03 A3035 RMK A01 T00021026  RH  081%=      5-min Rain = 0
KPD3 141358Z 31004KT 00/M03 A3035 RMK A01 T00021025  RH  082%=      5-min Rain = 0
KPD3 141359Z 31004KT 00/M02 A3035 RMK A01 T00021023  RH  083%=      5-min Rain = 0
KPD3 141400Z 31004KT 00/M02 A3035 RMK A01 T00021022  RH  084%=      5-min Rain = 0
KPD3 141401Z 31004KT 00/M02 A3035 RMK A01 T00031021  RH  084%=      5-min Rain = 0
KPD3 141402Z 31004KT 01/M02 A3035 RMK A01 T00051019  RH  084%=      5-min Rain = 0
KPD3 141403Z 31004KT 01/M02 A3035 RMK A01 T00061018  RH  084%=      5-min Rain = 0
KPD3 141404Z 31004KT 01/M02 A3035 RMK A01 T00081015  RH  084%=      5-min Rain = 0
KPD3 141405Z 31004KT 01/M01 A3035 RMK A01 T00121012  RH  084%=      5-min Rain = 0
KPD3 141406Z 31005KT 02/M01 A3035 RMK A01 T00161010  RH  083%=      5-min Rain = 0
KPD3 141407Z 31005KT 02/M01 A3035 RMK A01 T00191009  RH  082%=      5-min Rain = 0
KPD3 141408Z 31005KT 02/M01 A3035 RMK A01 T00211010  RH  080%=      5-min Rain = 0
KPD3 141409Z 31005KT 02/M01 A3035 RMK A01 T00231010  RH  079%=      5-min Rain = 0
KPD3 141410Z 31005KT 02/M01 A3035 RMK A01 T00241010  RH  078%=      5-min Rain = 0
KPD3 141411Z 31005KT 03/M01 A3035 RMK A01 T00251011  RH  077%=      5-min Rain = 0
KPD3 141412Z 31004KT 03/M01 A3035 RMK A01 T00261011  RH  077%=      5-min Rain = 0
KPD3 141413Z 31004KT 03/M01 A3036 RMK A01 T00271011  RH  076%=      5-min Rain = 0
KPD3 141414Z 31004KT 03/M01 A3036 RMK A01 T00281010  RH  076%=      5-min Rain = 0
KPD3 141415Z 31003KT 03/M01 A3036 RMK A01 T00291010  RH  076%=      5-min Rain = 0
KPD3 141416Z 31003KT 03/M01 A3036 RMK A01 T00301010  RH  075%=      5-min Rain = 0
KPD3 141417Z 30003KT 03/M01 A3036 RMK A01 T00311010  RH  074%=      5-min Rain = 0
KPD3 141418Z 30003KT 03/M01 A3036 RMK A01 T00321011  RH  073%=      5-min Rain = 0
KPD3 141419Z 30002KT 03/M01 A3036 RMK A01 T00321012  RH  073%=      5-min Rain = 0
KPD3 141420Z 31003KT 03/M01 A3036 RMK A01 T00331012  RH  072%=      5-min Rain = 0
KPD3 141421Z 31002KT 03/M01 A3036 RMK A01 T00341011  RH  072%=      5-min Rain = 0
KPD3 141422Z 31003KT 04/M01 A3036 RMK A01 T00351010  RH  072%=      5-min Rain = 0
KPD3 141423Z 31003KT 04/M01 A3036 RMK A01 T00361009  RH  072%=      5-min Rain = 0
KPD3 141424Z 31003KT 04/M01 A3036 RMK A01 T00371009  RH  072%=      5-min Rain = 0
KPD3 141425Z 31003KT 04/M01 A3036 RMK A01 T00381009  RH  071%=      5-min Rain = 0
KPD3 141426Z 32003KT 04/M01 A3036 RMK A01 T00391008  RH  071%=      5-min Rain = 0
KPD3 141427Z 31003KT 04/M01 A3037 RMK A01 T00401008  RH  071%=      5-min Rain = 0
KPD3 141428Z 32003KT 04/M01 A3037 RMK A01 T00411008  RH  070%=      5-min Rain = 0
KPD3 141429Z 31003KT 04/M01 A3037 RMK A01 T00421008  RH  070%=      5-min Rain = 0
KPD3 141430Z 31003KT 04/M01 A3037 RMK A01 T00431007  RH  070%=      5-min Rain = 0
KPD3 141431Z 30003KT 04/M01 A3037 RMK A01 T00441007  RH  069%=      5-min Rain = 0
KPD3 141432Z 31003KT 04/M01 A3037 RMK A01 T00441007  RH  069%=      5-min Rain = 0
KPD3 141433Z 30003KT 05/M01 A3037 RMK A01 T00451008  RH  069%=      5-min Rain = 0
KPD3 141434Z 31003KT 05/M01 A3037 RMK A01 T00451007  RH  069%=      5-min Rain = 0
KPD3 141435Z 30003KT 05/M01 A3037 RMK A01 T00451007  RH  069%=      5-min Rain = 0
KPD3 141436Z 29001KT 05/M01 A3037 RMK A01 T00471006  RH  069%=      5-min Rain = 0
KPD3 141437Z 30003KT 05/M01 A3037 RMK A01 T00481006  RH  068%=      5-min Rain = 0
KPD3 141438Z 31001KT 05/M01 A3037 RMK A01 T00481006  RH  068%=      5-min Rain = 0
KPD3 141439Z 35002KT 05/M01 A3037 RMK A01 T00491006  RH  068%=      5-min Rain = 0
KPD3 141440Z 32003KT 05/M01 A3037 RMK A01 T00491006  RH  068%=      5-min Rain = 0
KPD3 141441Z 35002KT 05/M01 A3037 RMK A01 T00501005  RH  067%=      5-min Rain = 0
KPD3 141442Z 01003KT 05/M01 A3037 RMK A01 T00521005  RH  067%=      5-min Rain = 0
KPD3 141443Z 35003KT 05/M01 A3037 RMK A01 T00521006  RH  066%=      5-min Rain = 0
KPD3 141444Z 00002KT 05/M01 A3037 RMK A01 T00521006  RH  066%=      5-min Rain = 0
KPD3 141445Z 34002KT 05/M01 A3037 RMK A01 T00531005  RH  066%=      5-min Rain = 0
KPD3 141446Z 01003KT 05/M01 A3037 RMK A01 T00541006  RH  065%=      5-min Rain = 0
KPD3 141447Z 00004KT 05/M01 A3037 RMK A01 T00541006  RH  065%=      5-min Rain = 0
KPD3 141448Z 36004KT 05/M01 A3038 RMK A01 T00541006  RH  065%=      5-min Rain = 0
KPD3 141449Z 35003KT 05/M01 A3038 RMK A01 T00541006  RH  065%=      5-min Rain = 0
KPD3 141450Z 35004KT 05/M01 A3038 RMK A01 T00541006  RH  065%=      5-min Rain = 0
KPD3 141451Z 36004KT 06/M01 A3038 RMK A01 T00551005  RH  065%=      5-min Rain = 0
KPD3 141452Z 36004KT 06/M01 A3038 RMK A01 T00571005  RH  065%=      5-min Rain = 0
KPD3 141453Z 01003KT 06/M01 A3038 RMK A01 T00571005  RH  064%=      5-min Rain = 0
KPD3 141454Z 35002KT 06/M01 A3038 RMK A01 T00571005  RH  064%=      5-min Rain = 0
KPD3 141455Z 00003KT 06/M00 A3038 RMK A01 T00581004  RH  064%=      5-min Rain = 0
KPD3 141456Z 35004KT 06/M00 A3038 RMK A01 T00601004  RH  064%=      5-min Rain = 0
KPD3 141457Z 00004KT 06/M00 A3038 RMK A01 T00611004  RH  063%=      5-min Rain = 0
KPD3 141458Z 01004KT 06/M01 A3038 RMK A01 T00611006  RH  062%=      5-min Rain = 0
KPD3 141459Z 01004KT 06/M01 A3038 RMK A01 T00601006  RH  063%=      5-min Rain = 0
KPD3 141500Z 04005KT 06/M01 A3038 RMK A01 T00601006  RH  062%=      5-min Rain = 0
KPD3 141501Z 04005KT 06/M01 A3038 RMK A01 T00601006  RH  062%=      5-min Rain = 0
KPD3 141502Z 03003KT 06/M01 A3038 RMK A01 T00611006  RH  062%=      5-min Rain = 0
KPD3 141503Z 03004KT 06/M00 A3039 RMK A01 T00621004  RH  062%=      5-min Rain = 0
KPD3 141504Z 03005KT 06/M01 A3039 RMK A01 T00631005  RH  062%=      5-min Rain = 0
KPD3 141505Z 03005KT 06/M01 A3039 RMK A01 T00641005  RH  061%=      5-min Rain = 0
KPD3 141506Z 03003KT 06/M01 A3039 RMK A01 T00641006  RH  061%=      5-min Rain = 0
KPD3 141507Z 02003KT 06/M01 A3039 RMK A01 T00631006  RH  061%=      5-min Rain = 0
KPD3 141508Z 02003KT 06/M01 A3039 RMK A01 T00631006  RH  061%=      5-min Rain = 0
KPD3 141509Z 01004KT 06/M01 A3039 RMK A01 T00631005  RH  061%=      5-min Rain = 0
KPD3 141510Z 00003KT 07/M00 A3039 RMK A01 T00651004  RH  062%=      5-min Rain = 0
KPD3 141511Z 35003KT 07/M00 A3039 RMK A01 T00671003  RH  061%=      5-min Rain = 0
KPD3 141512Z 02005KT 07/M00 A3039 RMK A01 T00691003  RH  060%=      5-min Rain = 0
KPD3 141513Z 02005KT 07/M00 A3039 RMK A01 T00691004  RH  060%=      5-min Rain = 0
KPD3 141514Z 05006KT 07/M00 A3039 RMK A01 T00701004  RH  060%=      5-min Rain = 0
KPD3 141515Z 04005KT 07/M00 A3039 RMK A01 T00701004  RH  059%=      5-min Rain = 0
KPD3 141516Z 03006KT 07/M00 A3039 RMK A01 T00701004  RH  059%=      5-min Rain = 0
KPD3 141517Z 02007KT 07/M00 A3039 RMK A01 T00711003  RH  059%=      5-min Rain = 0
KPD3 141518Z 04007KT 07/M00 A3039 RMK A01 T00711004  RH  059%=      5-min Rain = 0
KPD3 141519Z 03007KT 07/M01 A304 RMK A01 T00691005  RH  059%=      5-min Rain = 0
KPD3 141520Z 04006KT 07/M01 A3039 RMK A01 T00681005  RH  059%=      5-min Rain = 0
KPD3 141521Z 04006KT 07/M00 A3039 RMK A01 T00681004  RH  060%=      5-min Rain = 0
KPD3 141522Z 03006KT 07/M00 A304 RMK A01 T00711003  RH  059%=      5-min Rain = 0
KPD3 141523Z 03005KT 07/M01 A304 RMK A01 T00711005  RH  059%=      5-min Rain = 0
KPD3 141524Z 03005KT 07/M00 A304 RMK A01 T00711004  RH  059%=      5-min Rain = 0
KPD3 141525Z 03007KT 07/M00 A304 RMK A01 T00711004  RH  059%=      5-min Rain = 0
KPD3 141526Z 02008KT 07/M00 A304 RMK A01 T00721004  RH  058%=      5-min Rain = 0
KPD3 141527Z 02006KT 07/M00 A304 RMK A01 T00711004  RH  059%=      5-min Rain = 0
KPD3 141528Z 01007KT 07/M00 A304 RMK A01 T00721004  RH  058%=      5-min Rain = 0
KPD3 141529Z 03005KT 07/M01 A304 RMK A01 T00711005  RH  058%=      5-min Rain = 0
KPD3 141530Z 04005KT 07/M00 A304 RMK A01 T00721003  RH  059%=      5-min Rain = 0
KPD3 141531Z 03007KT 07/M00 A304 RMK A01 T00741002  RH  058%=      5-min Rain = 0
KPD3 141532Z 04007KT 07/M00 A304 RMK A01 T00741004  RH  057%=      5-min Rain = 0
KPD3 141533Z 02006KT 07/M00 A304 RMK A01 T00731004  RH  058%=      5-min Rain = 0
KPD3 141534Z 03005KT 07/M00 A304 RMK A01 T00731004  RH  058%=      5-min Rain = 0
KPD3 141535Z 03006KT 07/M00 A304 RMK A01 T00731003  RH  058%=      5-min Rain = 0
KPD3 141536Z 02006KT 07/M00 A304 RMK A01 T00741004  RH  058%=      5-min Rain = 0
KPD3 141537Z 02004KT 07/M00 A304 RMK A01 T00741003  RH  058%=      5-min Rain = 0
KPD3 141538Z 07004KT 08/M00 A304 RMK A01 T00761002  RH  058%=      5-min Rain = 0
KPD3 141539Z 05004KT 08/M00 A304 RMK A01 T00771003  RH  057%=      5-min Rain = 0
KPD3 141540Z 05004KT 08/M00 A304 RMK A01 T00781002  RH  057%=      5-min Rain = 0
KPD3 141541Z 02006KT 08/M00 A304 RMK A01 T00791002  RH  057%=      5-min Rain = 0
KPD3 141542Z 01006KT 08/M00 A304 RMK A01 T00781003  RH  056%=      5-min Rain = 0
KPD3 141543Z 04007KT 08/M00 A304 RMK A01 T00771003  RH  057%=      5-min Rain = 0
KPD3 141544Z 03005KT 08/M00 A304 RMK A01 T00771004  RH  057%=      5-min Rain = 0
KPD3 141545Z 01006KT 08/M00 A304 RMK A01 T00771002  RH  057%=      5-min Rain = 0
KPD3 141546Z 02004KT 08/M00 A304 RMK A01 T00791002  RH  057%=      5-min Rain = 0
KPD3 141547Z 04008KT 08/M00 A304 RMK A01 T00811001  RH  056%=      5-min Rain = 0
KPD3 141548Z 04008KT 08/M00 A304 RMK A01 T00811002  RH  056%=      5-min Rain = 0
KPD3 141549Z 03008KT 08/M00 A304 RMK A01 T00821002  RH  056%=      5-min Rain = 0
KPD3 141550Z 03008KT 08/M00 A304 RMK A01 T00821002  RH  055%=      5-min Rain = 0
KPD3 141551Z 04007KT 08/M00 A304 RMK A01 T00831002  RH  055%=      5-min Rain = 0
KPD3 141552Z 04007KT 08/M00 A304 RMK A01 T00831001  RH  055%=      5-min Rain = 0
KPD3 141553Z 03006KT 08/M00 A304 RMK A01 T00841002  RH  055%=      5-min Rain = 0
KPD3 141554Z 05007KT 09/M00 A304 RMK A01 T00851001  RH  055%=      5-min Rain = 0
KPD3 141555Z 06007KT 09/M00 A304 RMK A01 T00851001  RH  055%=      5-min Rain = 0
KPD3 141556Z 04007KT 09/M00 A304 RMK A01 T00851001  RH  055%=      5-min Rain = 0
KPD3 141557Z 05007KT 09/M00 A304 RMK A01 T00861002  RH  054%=      5-min Rain = 0
KPD3 141558Z 03007KT 09/M00 A304 RMK A01 T00851002  RH  055%=      5-min Rain = 0
KPD3 141559Z 02006KT 08/M00 A304 RMK A01 T00841002  RH  054%=      5-min Rain = 0
KPD3 141600Z 04009KT 08/M00 A304 RMK A01 T00841002  RH  055%=      5-min Rain = 0
KPD3 141601Z 06008KT 09/M00 A304 RMK A01 T00851001  RH  054%=      5-min Rain = 0
KPD3 141602Z 05007KT 09/M00 A304 RMK A01 T00861003  RH  054%=      5-min Rain = 0
KPD3 141603Z 05006KT 09/M00 A304 RMK A01 T00861002  RH  054%=      5-min Rain = 0
KPD3 141604Z 05006KT 09/M00 A304 RMK A01 T00861002  RH  054%=      5-min Rain = 0
KPD3 141605Z 05008KT 09/M00 A304 RMK A01 T00871001  RH  054%=      5-min Rain = 0
KPD3 141606Z 04007KT 09/M00 A3041 RMK A01 T00871002  RH  053%=      5-min Rain = 0
KPD3 141607Z 04006G11KT 09/M00 A3041 RMK A01 T00861003  RH  054%=      5-min Rain = 0
KPD3 141608Z 04009KT 09/M00 A3041 RMK A01 T00851003  RH  054%=      5-min Rain = 0
KPD3 141609Z 06007KT 09/M00 A3041 RMK A01 T00861003  RH  054%=      5-min Rain = 0
KPD3 141610Z 06008KT 09/M00 A3041 RMK A01 T00871002  RH  054%=      5-min Rain = 0
KPD3 141611Z 05008KT 09/M00 A3041 RMK A01 T00871002  RH  053%=      5-min Rain = 0
KPD3 141612Z 05008KT 09/M00 A3041 RMK A01 T00871003  RH  053%=      5-min Rain = 0
KPD3 141613Z 06007KT 09/M00 A3041 RMK A01 T00861003  RH  053%=      5-min Rain = 0
KPD3 141614Z 04007KT 09/M00 A3041 RMK A01 T00871002  RH  053%=      5-min Rain = 0
KPD3 141615Z 06008KT 09/M00 A3041 RMK A01 T00881002  RH  053%=      5-min Rain = 0
KPD3 141616Z 06006KT 09/M00 A3041 RMK A01 T00891001  RH  053%=      5-min Rain = 0
KPD3 141617Z 05007KT 09/M00 A3041 RMK A01 T00901001  RH  053%=      5-min Rain = 0
KPD3 141618Z 04009KT 09/M00 A3041 RMK A01 T00911001  RH  052%=      5-min Rain = 0
KPD3 141619Z 04007KT 09/M00 A3041 RMK A01 T00921003  RH  052%=      5-min Rain = 0
KPD3 141620Z 03008KT 09/M00 A3041 RMK A01 T00921002  RH  052%=      5-min Rain = 0
KPD3 141621Z 03009KT 09/M00 A3041 RMK A01 T00931002  RH  051%=      5-min Rain = 0
KPD3 141622Z 02007KT 09/M00 A3041 RMK A01 T00931002  RH  051%=      5-min Rain = 0
KPD3 141623Z 02008KT 09/M00 A3041 RMK A01 T00931002  RH  052%=      5-min Rain = 0
KPD3 141624Z 04006KT 09/M00 A3041 RMK A01 T00931002  RH  052%=      5-min Rain = 0
KPD3 141625Z 07006KT 10/00 A3041 RMK A01 T00950000  RH  051%=      5-min Rain = 0
KPD3 141626Z 07007KT 10/M00 A3041 RMK A01 T00961001  RH  051%=      5-min Rain = 0
KPD3 141627Z 06010KT 10/M00 A3041 RMK A01 T00971001  RH  050%=      5-min Rain = 0
KPD3 141628Z 05011KT 10/M00 A3041 RMK A01 T00981004  RH  049%=      5-min Rain = 0
KPD3 141629Z 05010KT 10/M01 A3041 RMK A01 T00981005  RH  049%=      5-min Rain = 0
KPD3 141630Z 05011KT 10/M00 A3041 RMK A01 T00981004  RH  049%=      5-min Rain = 0
KPD3 141631Z 06011KT 10/M01 A3041 RMK A01 T00971006  RH  048%=      5-min Rain = 0
KPD3 141632Z 06011KT 10/M01 A3041 RMK A01 T00971006  RH  048%=      5-min Rain = 0
KPD3 141633Z 06011KT 10/M01 A3041 RMK A01 T00981006  RH  048%=      5-min Rain = 0
KPD3 141634Z 04009KT 10/M01 A3041 RMK A01 T00981006  RH  048%=      5-min Rain = 0
KPD3 141635Z 06009KT 10/M01 A3041 RMK A01 T00981006  RH  048%=      5-min Rain = 0
KPD3 141636Z 05008KT 10/M01 A3041 RMK A01 T00971007  RH  048%=      5-min Rain = 0
KPD3 141637Z 04009KT 10/M00 A3041 RMK A01 T00981004  RH  049%=      5-min Rain = 0
KPD3 141638Z 05009KT 10/M00 A3041 RMK A01 T01011004  RH  048%=      5-min Rain = 0
KPD3 141639Z 05008KT 10/M01 A3041 RMK A01 T01011006  RH  048%=      5-min Rain = 0
KPD3 141640Z 04009KT 10/M01 A3041 RMK A01 T00991005  RH  048%=      5-min Rain = 0
KPD3 141641Z 04008KT 10/M01 A3041 RMK A01 T00991005  RH  048%=      5-min Rain = 0
KPD3 141642Z 04010KT 10/M00 A3041 RMK A01 T01001004  RH  049%=      5-min Rain = 0
KPD3 141643Z 07007KT 10/M00 A3041 RMK A01 T01011003  RH  048%=      5-min Rain = 0
KPD3 141644Z 05009KT 10/M00 A3041 RMK A01 T01031001  RH  048%=      5-min Rain = 0
KPD3 141645Z 07011KT 10/M00 A3041 RMK A01 T01041004  RH  047%=      5-min Rain = 0
KPD3 141646Z 07009KT 10/M01 A3041 RMK A01 T01021006  RH  047%=      5-min Rain = 0
KPD3 141647Z 07008KT 10/M01 A3041 RMK A01 T01001005  RH  048%=      5-min Rain = 0
KPD3 141648Z 06008KT 10/M01 A3041 RMK A01 T01011005  RH  048%=      5-min Rain = 0
KPD3 141649Z 04010KT 10/M00 A3042 RMK A01 T01021004  RH  048%=      5-min Rain = 0
KPD3 141650Z 04010KT 10/M01 A3042 RMK A01 T01031005  RH  047%=      5-min Rain = 0
KPD3 141651Z 03009KT 10/M01 A3042 RMK A01 T01011006  RH  047%=      5-min Rain = 0
KPD3 141652Z 03007KT 10/M01 A3042 RMK A01 T00991006  RH  048%=      5-min Rain = 0
KPD3 141653Z 03005KT 10/M01 A3041 RMK A01 T00991006  RH  048%=      5-min Rain = 0
KPD3 141654Z 07007KT 10/M01 A3042 RMK A01 T00991006  RH  048%=      5-min Rain = 0
KPD3 141655Z 06009KT 10/M01 A3041 RMK A01 T01011006  RH  048%=      5-min Rain = 0
KPD3 141656Z 05011KT 10/M01 A3042 RMK A01 T01021006  RH  047%=      5-min Rain = 0
KPD3 141657Z 05011KT 10/M01 A3042 RMK A01 T01031006  RH  047%=      5-min Rain = 0
KPD3 141658Z 06010KT 10/M01 A3042 RMK A01 T01031007  RH  046%=      5-min Rain = 0
KPD3 141659Z 05008KT 10/M01 A3042 RMK A01 T01021007  RH  047%=      5-min Rain = 0
KPD3 141700Z 04006KT 10/M01 A3042 RMK A01 T01011007  RH  047%=      5-min Rain = 0
KPD3 141701Z 06007KT 10/M01 A3042 RMK A01 T01031006  RH  047%=      5-min Rain = 0
KPD3 141702Z 06010KT 10/M01 A3042 RMK A01 T01041006  RH  046%=      5-min Rain = 0
KPD3 141703Z 07010KT 10/M01 A3042 RMK A01 T01031007  RH  046%=      5-min Rain = 0
KPD3 141704Z 05010KT 10/M01 A3042 RMK A01 T01041007  RH  046%=      5-min Rain = 0
KPD3 141705Z 04011KT 10/M01 A3042 RMK A01 T01041008  RH  046%=      5-min Rain = 0
KPD3 141706Z 05010KT 10/M01 A3042 RMK A01 T01041007  RH  046%=      5-min Rain = 0
KPD3 141707Z 05010KT 10/M01 A3042 RMK A01 T01031008  RH  046%=      5-min Rain = 0
KPD3 141708Z 06009KT 10/M01 A3042 RMK A01 T01031008  RH  046%=      5-min Rain = 0
KPD3 141709Z 04009KT 10/M01 A3042 RMK A01 T01031006  RH  047%=      5-min Rain = 0
KPD3 141710Z 04009KT 11/M00 A3042 RMK A01 T01061004  RH  046%=      5-min Rain = 0
KPD3 141711Z 05007KT 11/M01 A3042 RMK A01 T01081006  RH  045%=      5-min Rain = 0
KPD3 141712Z 05007KT 11/M01 A3042 RMK A01 T01061006  RH  046%=      5-min Rain = 0
KPD3 141713Z 06006KT 11/M01 A3041 RMK A01 T01061005  RH  046%=      5-min Rain = 0
KPD3 141714Z 06006KT 11/M01 A3041 RMK A01 T01071006  RH  046%=      5-min Rain = 0
KPD3 141715Z 05007KT 11/M01 A3041 RMK A01 T01061007  RH  046%=      5-min Rain = 0
KPD3 141716Z 04007KT 11/M01 A3041 RMK A01 T01071005  RH  046%=      5-min Rain = 0
KPD3 141717Z 05007KT 11/M00 A3041 RMK A01 T01101003  RH  045%=      5-min Rain = 0
KPD3 141718Z 05010KT 11/M00 A3041 RMK A01 T01131004  RH  044%=      5-min Rain = 0
KPD3 141719Z 05009KT 11/M01 A3041 RMK A01 T01111006  RH  044%=      5-min Rain = 0
KPD3 141720Z 03007KT 11/M01 A3041 RMK A01 T01091007  RH  044%=      5-min Rain = 0
KPD3 141721Z 05005KT 11/M01 A3041 RMK A01 T01051008  RH  045%=      5-min Rain = 0
KPD3 141722Z 05005KT 11/M01 A3041 RMK A01 T01051007  RH  046%=      5-min Rain = 0
KPD3 141723Z 02006KT 11/M01 A3041 RMK A01 T01061005  RH  046%=      5-min Rain = 0
KPD3 141724Z 03007KT 11/M00 A3041 RMK A01 T01091004  RH  046%=      5-min Rain = 0
KPD3 141725Z 02009KT 11/M00 A3041 RMK A01 T01121002  RH  045%=      5-min Rain = 0
KPD3 141726Z 03005KT 11/M00 A3041 RMK A01 T01141004  RH  044%=      5-min Rain = 0
KPD3 141727Z 03006KT 11/M01 A3041 RMK A01 T01121007  RH  044%=      5-min Rain = 0
KPD3 141728Z 04008KT 11/M01 A3041 RMK A01 T01101005  RH  045%=      5-min Rain = 0
KPD3 141729Z 07008KT 11/M00 A3041 RMK A01 T01131002  RH  045%=      5-min Rain = 0
KPD3 141730Z 07007KT 12/M00 A3041 RMK A01 T01151004  RH  044%=      5-min Rain = 0
KPD3 141731Z 06009KT 12/M00 A3041 RMK A01 T01151004  RH  044%=      5-min Rain = 0
KPD3 141732Z 09008KT 11/M01 A3041 RMK A01 T01121007  RH  044%=      5-min Rain = 0
KPD3 141733Z 06011KT 11/M01 A3041 RMK A01 T01111005  RH  045%=      5-min Rain = 0
KPD3 141734Z 02008KT 11/M00 A3041 RMK A01 T01141003  RH  044%=      5-min Rain = 0
KPD3 141735Z 04008KT 12/M00 A3041 RMK A01 T01151004  RH  044%=      5-min Rain = 0
KPD3 141736Z 05008KT 12/M00 A3041 RMK A01 T01171004  RH  043%=      5-min Rain = 0
KPD3 141737Z 07009KT 12/M01 A3041 RMK A01 T01161005  RH  043%=      5-min Rain = 0
KPD3 141738Z 06010KT 12/M01 A3041 RMK A01 T01161005  RH  043%=      5-min Rain = 0
KPD3 141739Z 06010KT 12/M01 A3041 RMK A01 T01151006  RH  043%=      5-min Rain = 0
KPD3 141740Z 04011KT 11/M01 A3041 RMK A01 T01141006  RH  044%=      5-min Rain = 0
KPD3 141741Z 04008KT 11/M01 A3041 RMK A01 T01131006  RH  044%=      5-min Rain = 0
KPD3 141742Z 03009KT 11/M01 A3041 RMK A01 T01131006  RH  044%=      5-min Rain = 0
KPD3 141743Z 03007KT 11/M01 A3041 RMK A01 T01131005  RH  044%=      5-min Rain = 0
KPD3 141744Z 03005KT 11/M01 A3041 RMK A01 T01131006  RH  044%=      5-min Rain = 0
KPD3 141745Z 04004KT 11/M01 A3041 RMK A01 T01121006  RH  044%=      5-min Rain = 0
KPD3 141746Z 05003KT 11/M01 A3041 RMK A01 T01111006  RH  044%=      5-min Rain = 0
KPD3 141747Z 07002KT 11/M01 A3041 RMK A01 T01101008  RH  044%=      5-min Rain = 0
KPD3 141748Z 05005KT 11/M01 A3041 RMK A01 T01101005  RH  045%=      5-min Rain = 0
KPD3 141749Z 06005KT 11/M00 A3041 RMK A01 T01141003  RH  044%=      5-min Rain = 0
KPD3 141750Z 04007KT 12/M00 A3041 RMK A01 T01191002  RH  043%=      5-min Rain = 0
KPD3 141751Z 02008KT 12/M01 A3041 RMK A01 T01201005  RH  042%=      5-min Rain = 0
KPD3 141752Z 03006KT 12/M01 A304 RMK A01 T01171006  RH  042%=      5-min Rain = 0
KPD3 141753Z 02006KT 12/M01 A304 RMK A01 T01161005  RH  043%=      5-min Rain = 0
KPD3 141754Z 02007KT 12/M01 A304 RMK A01 T01161005  RH  043%=      5-min Rain = 0
KPD3 141755Z 04009KT 12/M01 A304 RMK A01 T01161005  RH  043%=      5-min Rain = 0
KPD3 141756Z 04008KT 12/M01 A3041 RMK A01 T01171006  RH  043%=      5-min Rain = 0
KPD3 141757Z 04007KT 12/M01 A3041 RMK A01 T01171005  RH  043%=      5-min Rain = 0
KPD3 141758Z 03009KT 12/M00 A3041 RMK A01 T01211003  RH  042%=      5-min Rain = 0
KPD3 141759Z 03006KT 12/M01 A304 RMK A01 T01181008  RH  042%=      5-min Rain = 0
KPD3 141800Z 05008KT 12/M01 A304 RMK A01 T01151007  RH  043%=      5-min Rain = 0
KPD3 141801Z 05007KT 12/M01 A304 RMK A01 T01151007  RH  043%=      5-min Rain = 0
KPD3 141802Z 01007KT 12/M01 A304 RMK A01 T01171005  RH  043%=      5-min Rain = 0
KPD3 141803Z 02003KT 12/M01 A304 RMK A01 T01191006  RH  042%=      5-min Rain = 0
KPD3 141804Z 05006KT 12/M01 A304 RMK A01 T01191006  RH  042%=      5-min Rain = 0
KPD3 141805Z 05007KT 12/M01 A304 RMK A01 T01191006  RH  042%=      5-min Rain = 0
KPD3 141806Z 05009KT 12/M01 A304 RMK A01 T01211005  RH  042%=      5-min Rain = 0
KPD3 141807Z 05009KT 12/M01 A304 RMK A01 T01221006  RH  041%=      5-min Rain = 0
KPD3 141808Z 04008KT 12/M01 A304 RMK A01 T01201007  RH  041%=      5-min Rain = 0
KPD3 141809Z 04009KT 12/M01 A304 RMK A01 T01201006  RH  042%=      5-min Rain = 0
KPD3 141810Z 04006KT 12/M01 A304 RMK A01 T01191007  RH  042%=      5-min Rain = 0
KPD3 141811Z 05007KT 12/M01 A304 RMK A01 T01181006  RH  042%=      5-min Rain = 0
KPD3 141812Z 02008KT 12/M01 A304 RMK A01 T01191005  RH  042%=      5-min Rain = 0
KPD3 141813Z 02006KT 12/M01 A304 RMK A01 T01201007  RH  041%=      5-min Rain = 0
KPD3 141814Z 01009KT 12/M01 A304 RMK A01 T01191007  RH  042%=      5-min Rain = 0
KPD3 141815Z 00007KT 12/M01 A304 RMK A01 T01171008  RH  042%=      5-min Rain = 0
KPD3 141816Z 02006KT 12/M01 A304 RMK A01 T01151009  RH  042%=      5-min Rain = 0
KPD3 141817Z 00006KT 11/M01 A304 RMK A01 T01141007  RH  043%=      5-min Rain = 0
KPD3 141818Z 02005KT 12/M01 A3039 RMK A01 T01151007  RH  043%=      5-min Rain = 0
KPD3 141819Z 02008KT 12/M00 A3039 RMK A01 T01181004  RH  043%=      5-min Rain = 0
KPD3 141820Z 03006KT 12/M01 A3039 RMK A01 T01211006  RH  042%=      5-min Rain = 0
KPD3 141821Z 05007KT 12/M01 A3039 RMK A01 T01221005  RH  042%=      5-min Rain = 0
KPD3 141822Z 03007KT 12/M01 A3039 RMK A01 T01241005  RH  041%=      5-min Rain = 0
KPD3 141823Z 04005KT 12/M01 A3039 RMK A01 T01241005  RH  041%=      5-min Rain = 0
KPD3 141824Z 05005KT 12/M01 A3039 RMK A01 T01241006  RH  041%=      5-min Rain = 0
KPD3 141825Z 04006KT 12/M01 A3039 RMK A01 T01241006  RH  041%=      5-min Rain = 0
KPD3 141826Z 04008KT 13/M01 A3039 RMK A01 T01251006  RH  040%=      5-min Rain = 0
KPD3 141827Z 07006KT 12/M01 A3039 RMK A01 T01241007  RH  040%=      5-min Rain = 0
KPD3 141828Z 08007KT 12/M01 A3039 RMK A01 T01231007  RH  040%=      5-min Rain = 0
KPD3 141829Z 09006KT 12/M01 A3039 RMK A01 T01221007  RH  041%=      5-min Rain = 0
KPD3 141830Z 07005KT 12/M01 A3039 RMK A01 T01221007  RH  041%=      5-min Rain = 0
KPD3 141831Z 03006KT 12/M01 A3039 RMK A01 T01231005  RH  041%=      5-min Rain = 0
KPD3 141832Z 02008KT 13/M00 A3039 RMK A01 T01261004  RH  041%=      5-min Rain = 0
KPD3 141833Z 03008KT 13/M01 A3039 RMK A01 T01291005  RH  040%=      5-min Rain = 0
KPD3 141834Z 03006KT 13/M01 A3039 RMK A01 T01281006  RH  040%=      5-min Rain = 0
KPD3 141835Z 02007KT 13/M01 A3038 RMK A01 T01261006  RH  040%=      5-min Rain = 0
KPD3 141836Z 01006KT 13/M01 A3038 RMK A01 T01261006  RH  040%=      5-min Rain = 0
KPD3 141837Z 02007KT 13/M01 A3038 RMK A01 T01251007  RH  040%=      5-min Rain = 0
KPD3 141838Z 03006KT 12/M01 A3038 RMK A01 T01231007  RH  041%=      5-min Rain = 0
KPD3 141839Z 04009KT 13/M01 A3038 RMK A01 T01251005  RH  041%=      5-min Rain = 0
KPD3 141840Z 06009KT 13/M01 A3038 RMK A01 T01271005  RH  040%=      5-min Rain = 0
KPD3 141841Z 05010KT 13/M01 A3038 RMK A01 T01281006  RH  040%=      5-min Rain = 0
KPD3 141842Z 05010KT 13/M01 A3038 RMK A01 T01271007  RH  040%=      5-min Rain = 0
KPD3 141843Z 04011KT 13/M01 A3038 RMK A01 T01261006  RH  040%=      5-min Rain = 0
KPD3 141844Z 04009KT 13/M01 A3038 RMK A01 T01261006  RH  040%=      5-min Rain = 0
KPD3 141845Z 06010KT 13/M01 A3038 RMK A01 T01261006  RH  040%=      5-min Rain = 0
KPD3 141846Z 05008KT 13/M01 A3038 RMK A01 T01271005  RH  040%=      5-min Rain = 0
KPD3 141847Z 06007KT 13/M00 A3038 RMK A01 T01291004  RH  040%=      5-min Rain = 0
KPD3 141848Z 05006KT 13/M00 A3038 RMK A01 T01321003  RH  039%=      5-min Rain = 0
KPD3 141849Z 05011KT 13/M00 A3038 RMK A01 T01331004  RH  039%=      5-min Rain = 0
KPD3 141850Z 05011KT 13/M01 A3038 RMK A01 T01301007  RH  039%=      5-min Rain = 0
KPD3 141851Z 05008KT 13/M01 A3038 RMK A01 T01261007  RH  040%=      5-min Rain = 0
KPD3 141852Z 06007KT 13/M01 A3038 RMK A01 T01261006  RH  040%=      5-min Rain = 0
KPD3 141853Z 06007KT 13/M01 A3038 RMK A01 T01271005  RH  040%=      5-min Rain = 0
KPD3 141854Z 05008KT 13/M01 A3038 RMK A01 T01291005  RH  040%=      5-min Rain = 0
KPD3 141855Z 05007KT 13/M01 A3038 RMK A01 T01271007  RH  039%=      5-min Rain = 0
KPD3 141856Z 04005KT 13/M01 A3038 RMK A01 T01251007  RH  040%=      5-min Rain = 0
KPD3 141857Z 04007KT 13/M01 A3038 RMK A01 T01251005  RH  041%=      5-min Rain = 0
KPD3 141858Z 06009KT 13/M00 A3038 RMK A01 T01281004  RH  040%=      5-min Rain = 0
KPD3 141859Z 07007KT 13/M01 A3038 RMK A01 T01291006  RH  040%=      5-min Rain = 0
KPD3 141900Z 08007KT 13/M01 A3038 RMK A01 T01281005  RH  040%=      5-min Rain = 0
KPD3 141901Z 08006KT 13/M01 A3038 RMK A01 T01281005  RH  040%=      5-min Rain = 0
KPD3 141902Z 09005KT 13/M01 A3038 RMK A01 T01281006  RH  040%=      5-min Rain = 0
KPD3 141903Z 11004KT 13/M01 A3038 RMK A01 T01271006  RH  040%=      5-min Rain = 0
KPD3 141904Z 10004KT 13/M01 A3038 RMK A01 T01251007  RH  040%=      5-min Rain = 0
KPD3 141905Z 11004KT 12/M01 A3037 RMK A01 T01241005  RH  041%=      5-min Rain = 0
KPD3 141906Z 10005KT 13/M00 A3037 RMK A01 T01281002  RH  041%=      5-min Rain = 0
KPD3 141907Z 10006KT 13/M00 A3037 RMK A01 T01301004  RH  040%=      5-min Rain = 0
KPD3 141908Z 12002KT 13/M01 A3037 RMK A01 T01281006  RH  039%=      5-min Rain = 0
KPD3 141909Z 10003KT 13/M01 A3037 RMK A01 T01281005  RH  040%=      5-min Rain = 0
KPD3 141910Z 11005KT 13/M00 A3037 RMK A01 T01301002  RH  040%=      5-min Rain = 0
KPD3 141911Z 05004KT 13/M00 A3037 RMK A01 T01331002  RH  039%=      5-min Rain = 0
KPD3 141912Z 04007G13KT 13/M00 A3037 RMK A01 T01341004  RH  039%=      5-min Rain = 0
KPD3 141913Z 02009KT 13/M00 A3037 RMK A01 T01341004  RH  039%=      5-min Rain = 0
KPD3 141914Z 03006KT 13/M01 A3037 RMK A01 T01321007  RH  038%=      5-min Rain = 0
KPD3 141915Z 01006KT 13/M01 A3037 RMK A01 T01301006  RH  039%=      5-min Rain = 0
KPD3 141916Z 00006KT 13/M00 A3037 RMK A01 T01301004  RH  040%=      5-min Rain = 0
KPD3 141917Z 35005KT 13/M01 A3037 RMK A01 T01311006  RH  039%=      5-min Rain = 0
KPD3 141918Z 36005KT 13/M01 A3037 RMK A01 T01291006  RH  039%=      5-min Rain = 0
KPD3 141919Z 01007KT 13/M01 A3037 RMK A01 T01301005  RH  040%=      5-min Rain = 0
KPD3 141920Z 35005KT 13/M01 A3037 RMK A01 T01291006  RH  039%=      5-min Rain = 0
KPD3 141921Z 06005KT 13/M01 A3037 RMK A01 T01291005  RH  040%=      5-min Rain = 0
KPD3 141922Z 04004KT 13/M01 A3037 RMK A01 T01311006  RH  039%=      5-min Rain = 0
KPD3 141923Z 09004KT 13/M01 A3037 RMK A01 T01301007  RH  039%=      5-min Rain = 0
KPD3 141924Z 13002KT 13/M01 A3037 RMK A01 T01291006  RH  039%=      5-min Rain = 0
KPD3 141925Z 07008KT 13/M00 A3037 RMK A01 T01311004  RH  039%=      5-min Rain = 0
KPD3 141926Z 05009KT 14/M00 A3037 RMK A01 T01361003  RH  038%=      5-min Rain = 0
KPD3 141927Z 05008KT 14/M00 A3037 RMK A01 T01381004  RH  038%=      5-min Rain = 0
KPD3 141928Z 05008KT 14/M01 A3037 RMK A01 T01361006  RH  037%=      5-min Rain = 0
KPD3 141929Z 05011KT 13/M01 A3037 RMK A01 T01341007  RH  038%=      5-min Rain = 0
KPD3 141930Z 03006KT 13/M01 A3037 RMK A01 T01311007  RH  038%=      5-min Rain = 0
KPD3 141931Z 04002KT 13/M01 A3037 RMK A01 T01301007  RH  039%=      5-min Rain = 0
KPD3 141932Z 04003KT 13/M01 A3037 RMK A01 T01301007  RH  039%=      5-min Rain = 0
KPD3 141933Z 07002KT 13/M01 A3037 RMK A01 T01301007  RH  039%=      5-min Rain = 0
KPD3 141934Z 10005KT 13/M01 A3037 RMK A01 T01311006  RH  039%=      5-min Rain = 0
KPD3 141935Z 11003KT 13/M01 A3037 RMK A01 T01321007  RH  038%=      5-min Rain = 0
KPD3 141936Z 12004KT 13/M01 A3037 RMK A01 T01311008  RH  038%=      5-min Rain = 0
KPD3 141937Z 10006KT 13/M01 A3037 RMK A01 T01311006  RH  039%=      5-min Rain = 0
KPD3 141938Z 08008KT 13/M01 A3036 RMK A01 T01331006  RH  038%=      5-min Rain = 0
KPD3 141939Z 07008KT 13/M01 A3036 RMK A01 T01341007  RH  038%=      5-min Rain = 0
KPD3 141940Z 10007KT 13/M01 A3036 RMK A01 T01341008  RH  038%=      5-min Rain = 0
KPD3 141941Z 11009KT 13/M01 A3036 RMK A01 T01341007  RH  038%=      5-min Rain = 0
KPD3 141942Z 08008KT 14/M01 A3036 RMK A01 T01351006  RH  038%=      5-min Rain = 0
KPD3 141943Z 07006KT 13/M01 A3036 RMK A01 T01341009  RH  037%=      5-min Rain = 0
KPD3 141944Z 08005KT 13/M01 A3036 RMK A01 T01331008  RH  038%=      5-min Rain = 0
KPD3 141945Z 08005KT 13/M01 A3036 RMK A01 T01321008  RH  038%=      5-min Rain = 0
KPD3 141946Z 08008G13KT 13/M01 A3036 RMK A01 T01331008  RH  038%=      5-min Rain = 0
KPD3 141947Z 06010KT 14/M01 A3036 RMK A01 T01361006  RH  038%=      5-min Rain = 0
KPD3 141948Z 06009KT 14/M01 A3036 RMK A01 T01381007  RH  037%=      5-min Rain = 0
KPD3 141949Z 06007KT 14/M01 A3036 RMK A01 T01381007  RH  037%=      5-min Rain = 0
KPD3 141950Z 05008KT 14/M01 A3036 RMK A01 T01391006  RH  037%=      5-min Rain = 0
KPD3 141951Z 08006KT 14/M01 A3036 RMK A01 T01391007  RH  037%=      5-min Rain = 0
KPD3 141952Z 05009KT 14/M01 A3036 RMK A01 T01391007  RH  036%=      5-min Rain = 0
KPD3 141953Z 05008KT 14/M01 A3036 RMK A01 T01391007  RH  037%=      5-min Rain = 0
KPD3 141954Z 05006KT 14/M01 A3036 RMK A01 T01381008  RH  036%=      5-min Rain = 0
KPD3 141955Z 07006KT 14/M01 A3036 RMK A01 T01371008  RH  037%=      5-min Rain = 0
KPD3 141956Z 08006KT 14/M01 A3036 RMK A01 T01381007  RH  037%=      5-min Rain = 0
KPD3 141957Z 02005KT 14/M01 A3036 RMK A01 T01391006  RH  037%=      5-min Rain = 0
KPD3 141958Z 03007KT 14/M01 A3036 RMK A01 T01401007  RH  036%=      5-min Rain = 0
KPD3 141959Z 02005KT 14/M01 A3036 RMK A01 T01401007  RH  036%=      5-min Rain = 0
KPD3 142000Z 01004KT 14/M01 A3036 RMK A01 T01391007  RH  037%=      5-min Rain = 0
KPD3 142001Z 02004KT 14/M01 A3036 RMK A01 T01371010  RH  036%=      5-min Rain = 0
KPD3 142002Z 06008KT 14/M01 A3036 RMK A01 T01351008  RH  037%=      5-min Rain = 0
KPD3 142003Z 06009KT 14/M01 A3036 RMK A01 T01361007  RH  037%=      5-min Rain = 0
KPD3 142004Z 04009KT 14/M01 A3036 RMK A01 T01401006  RH  037%=      5-min Rain = 0
KPD3 142005Z 03005KT 14/M01 A3036 RMK A01 T01401007  RH  036%=      5-min Rain = 0
KPD3 142006Z 06006G12KT 14/M01 A3035 RMK A01 T01401006  RH  037%=      5-min Rain = 0
KPD3 142007Z 07008KT 14/M01 A3035 RMK A01 T01411007  RH  036%=      5-min Rain = 0
KPD3 142008Z 08010KT 14/M01 A3035 RMK A01 T01381008  RH  036%=      5-min Rain = 0
KPD3 142009Z 08009KT 14/M01 A3035 RMK A01 T01371008  RH  037%=      5-min Rain = 0
KPD3 142010Z 07007KT 14/M01 A3035 RMK A01 T01371008  RH  037%=      5-min Rain = 0
KPD3 142011Z 06007G13KT 14/M01 A3035 RMK A01 T01351009  RH  037%=      5-min Rain = 0
KPD3 142012Z 07010KT 14/M01 A3035 RMK A01 T01351007  RH  037%=      5-min Rain = 0
KPD3 142013Z 06011KT 14/M01 A3035 RMK A01 T01381007  RH  037%=      5-min Rain = 0
KPD3 142014Z 07010KT 14/M01 A3035 RMK A01 T01371008  RH  037%=      5-min Rain = 0
KPD3 142015Z 08009KT 14/M01 A3035 RMK A01 T01371008  RH  037%=      5-min Rain = 0
KPD3 142016Z 06009KT 14/M01 A3035 RMK A01 T01361008  RH  037%=      5-min Rain = 0
KPD3 142017Z 05005KT 14/M01 A3035 RMK A01 T01361009  RH  037%=      5-min Rain = 0
KPD3 142018Z 06006KT 13/M01 A3035 RMK A01 T01341009  RH  037%=      5-min Rain = 0
KPD3 142019Z 05005KT 13/M01 A3035 RMK A01 T01331009  RH  038%=      5-min Rain = 0
KPD3 142020Z 07002KT 13/M01 A3035 RMK A01 T01321009  RH  038%=      5-min Rain = 0
KPD3 142021Z 09000KT 13/M01 A3035 RMK A01 T01321009  RH  038%=      5-min Rain = 0
KPD3 142022Z 08002KT 13/M01 A3035 RMK A01 T01341006  RH  038%=      5-min Rain = 0
KPD3 142023Z 12004KT 14/M01 A3035 RMK A01 T01371005  RH  038%=      5-min Rain = 0
KPD3 142024Z 11006KT 14/M01 A3035 RMK A01 T01401005  RH  037%=      5-min Rain = 0
KPD3 142025Z 09004KT 14/M01 A3035 RMK A01 T01411005  RH  037%=      5-min Rain = 0
KPD3 142026Z 08004KT 14/M01 A3035 RMK A01 T01431005  RH  036%=      5-min Rain = 0
KPD3 142027Z 06005KT 14/M01 A3035 RMK A01 T01431007  RH  036%=      5-min Rain = 0
KPD3 142028Z 06003KT 14/M01 A3035 RMK A01 T01411007  RH  036%=      5-min Rain = 0
KPD3 142029Z 09004KT 14/M01 A3035 RMK A01 T01401007  RH  036%=      5-min Rain = 0
KPD3 142030Z 14003KT 14/M01 A3035 RMK A01 T01401007  RH  037%=      5-min Rain = 0
KPD3 142031Z 02005KT 14/M01 A3035 RMK A01 T01401007  RH  036%=      5-min Rain = 0
KPD3 142032Z 05010KT 14/M01 A3035 RMK A01 T01401007  RH  036%=      5-min Rain = 0
KPD3 142033Z 06010KT 14/M01 A3035 RMK A01 T01401007  RH  036%=      5-min Rain = 0
KPD3 142034Z 06010KT 14/M01 A3035 RMK A01 T01401008  RH  036%=      5-min Rain = 0
KPD3 142035Z 06008KT 14/M01 A3035 RMK A01 T01391007  RH  036%=      5-min Rain = 0
KPD3 142036Z 04008KT 14/M01 A3035 RMK A01 T01401007  RH  036%=      5-min Rain = 0
KPD3 142037Z 03004KT 14/M01 A3035 RMK A01 T01401006  RH  036%=      5-min Rain = 0
KPD3 142038Z 04005KT 14/M01 A3035 RMK A01 T01391008  RH  036%=      5-min Rain = 0
KPD3 142039Z 08005KT 14/M01 A3035 RMK A01 T01381008  RH  037%=      5-min Rain = 0
KPD3 142040Z 05004G9KT 14/M01 A3035 RMK A01 T01381006  RH  037%=      5-min Rain = 0
KPD3 142041Z 06009KT 14/M01 A3035 RMK A01 T01391007  RH  037%=      5-min Rain = 0
KPD3 142042Z 04006KT 14/M01 A3035 RMK A01 T01391007  RH  037%=      5-min Rain = 0
KPD3 142043Z 04003KT 14/M01 A3035 RMK A01 T01391007  RH  037%=      5-min Rain = 0
KPD3 142044Z 07003KT 14/M01 A3035 RMK A01 T01391008  RH  036%=      5-min Rain = 0
KPD3 142045Z 04002KT 14/M01 A3035 RMK A01 T01391007  RH  037%=      5-min Rain = 0
KPD3 142046Z 09001KT 14/M01 A3035 RMK A01 T01391008  RH  036%=      5-min Rain = 0
KPD3 142047Z 08004KT 14/M01 A3035 RMK A01 T01391007  RH  036%=      5-min Rain = 0
KPD3 142048Z 09007KT 14/M01 A3035 RMK A01 T01391007  RH  037%=      5-min Rain = 0
KPD3 142049Z 09010KT 14/M01 A3035 RMK A01 T01411005  RH  037%=      5-min Rain = 0
KPD3 142050Z 08010KT 14/M01 A3035 RMK A01 T01411006  RH  036%=      5-min Rain = 0
KPD3 142051Z 07008KT 14/M01 A3035 RMK A01 T01401006  RH  036%=      5-min Rain = 0
KPD3 142052Z 09007KT 14/M01 A3035 RMK A01 T01421006  RH  036%=      5-min Rain = 0
KPD3 142053Z 08007KT 15/M00 A3035 RMK A01 T01451004  RH  036%=      5-min Rain = 0
KPD3 142054Z 11007KT 15/M01 A3035 RMK A01 T01451006  RH  035%=      5-min Rain = 0
KPD3 142055Z 11005KT 14/M01 A3035 RMK A01 T01431006  RH  036%=      5-min Rain = 0
KPD3 142056Z 12005KT 14/M01 A3035 RMK A01 T01411006  RH  036%=      5-min Rain = 0
KPD3 142057Z 11006KT 14/M01 A3035 RMK A01 T01401007  RH  036%=      5-min Rain = 0
KPD3 142058Z 09006KT 14/M01 A3035 RMK A01 T01381006  RH  037%=      5-min Rain = 0
KPD3 142059Z 07007KT 14/M01 A3035 RMK A01 T01411005  RH  037%=      5-min Rain = 0
KPD3 142100Z 07006KT 14/M01 A3035 RMK A01 T01411008  RH  036%=      5-min Rain = 0
KPD3 142101Z 09005KT 14/M01 A3035 RMK A01 T01401008  RH  036%=      5-min Rain = 0
KPD3 142102Z 08002KT 14/M01 A3035 RMK A01 T01391008  RH  036%=      5-min Rain = 0
KPD3 142103Z 02002KT 14/M01 A3035 RMK A01 T01381009  RH  036%=      5-min Rain = 0
KPD3 142104Z 03003KT 14/M01 A3035 RMK A01 T01381008  RH  036%=      5-min Rain = 0
KPD3 142105Z 02003KT 14/M01 A3035 RMK A01 T01391009  RH  036%=      5-min Rain = 0
KPD3 142106Z 04004KT 14/M01 A3035 RMK A01 T01381009  RH  036%=      5-min Rain = 0
KPD3 142107Z 04007KT 14/M01 A3035 RMK A01 T01381008  RH  037%=      5-min Rain = 0
KPD3 142108Z 02006KT 14/M01 A3035 RMK A01 T01391008  RH  036%=      5-min Rain = 0
KPD3 142109Z 04007KT 14/M01 A3035 RMK A01 T01401008  RH  036%=      5-min Rain = 0
KPD3 142110Z 08007KT 14/M01 A3035 RMK A01 T01401008  RH  036%=      5-min Rain = 0
KPD3 142111Z 07008KT 14/M01 A3035 RMK A01 T01411007  RH  036%=      5-min Rain = 0
KPD3 142112Z 06006KT 14/M01 A3035 RMK A01 T01411008  RH  036%=      5-min Rain = 0
KPD3 142113Z 06005KT 14/M01 A3035 RMK A01 T01391009  RH  036%=      5-min Rain = 0
KPD3 142114Z 03005KT 14/M01 A3035 RMK A01 T01391008  RH  036%=      5-min Rain = 0
KPD3 142115Z 05004KT 14/M01 A3035 RMK A01 T01401007  RH  036%=      5-min Rain = 0
KPD3 142116Z 07002KT 14/M01 A3035 RMK A01 T01411007  RH  036%=      5-min Rain = 0
KPD3 142117Z 04001KT 14/M01 A3035 RMK A01 T01411008  RH  036%=      5-min Rain = 0
KPD3 142118Z 07005G10KT 14/M01 A3035 RMK A01 T01421007  RH  036%=      5-min Rain = 0
KPD3 142119Z 06005KT 14/M01 A3035 RMK A01 T01411008  RH  036%=      5-min Rain = 0
KPD3 142120Z 09002KT 14/M01 A3035 RMK A01 T01391009  RH  036%=      5-min Rain = 0
KPD3 142121Z 06003KT 14/M01 A3035 RMK A01 T01381008  RH  036%=      5-min Rain = 0
KPD3 142122Z 04002KT 14/M01 A3035 RMK A01 T01391007  RH  036%=      5-min Rain = 0
KPD3 142123Z 09004KT 14/M01 A3035 RMK A01 T01401007  RH  036%=      5-min Rain = 0
KPD3 142124Z 10005KT 14/M01 A3035 RMK A01 T01411007  RH  036%=      5-min Rain = 0
KPD3 142125Z 08006KT 14/M01 A3035 RMK A01 T01401008  RH  036%=      5-min Rain = 0
KPD3 142126Z 06007KT 14/M01 A3035 RMK A01 T01401007  RH  036%=      5-min Rain = 0
KPD3 142127Z 06006KT 14/M01 A3035 RMK A01 T01391008  RH  036%=      5-min Rain = 0
KPD3 142128Z 08007KT 14/M01 A3035 RMK A01 T01401006  RH  037%=      5-min Rain = 0
KPD3 142129Z 08004KT 14/M01 A3035 RMK A01 T01401008  RH  036%=      5-min Rain = 0
KPD3 142130Z 09003KT 14/M01 A3035 RMK A01 T01371009  RH  036%=      5-min Rain = 0
KPD3 142131Z 11002KT 14/M01 A3035 RMK A01 T01361009  RH  037%=      5-min Rain = 0
KPD3 142132Z 08003KT 14/M01 A3035 RMK A01 T01361007  RH  037%=      5-min Rain = 0
KPD3 142133Z 08004KT 14/M01 A3035 RMK A01 T01371008  RH  037%=      5-min Rain = 0
KPD3 142134Z 07004KT 14/M01 A3035 RMK A01 T01381008  RH  037%=      5-min Rain = 0
KPD3 142135Z 08006KT 14/M01 A3035 RMK A01 T01391007  RH  037%=      5-min Rain = 0
KPD3 142136Z 10007KT 14/M01 A3035 RMK A01 T01401007  RH  036%=      5-min Rain = 0
KPD3 142137Z 09008KT 14/M01 A3035 RMK A01 T01401006  RH  036%=      5-min Rain = 0
KPD3 142138Z 06006KT 14/M01 A3035 RMK A01 T01411007  RH  036%=      5-min Rain = 0
KPD3 142139Z 03008KT 14/M01 A3035 RMK A01 T01411007  RH  036%=      5-min Rain = 0
KPD3 142140Z 04005KT 14/M01 A3035 RMK A01 T01401008  RH  036%=      5-min Rain = 0
KPD3 142141Z 06007KT 14/M01 A3035 RMK A01 T01391008  RH  036%=      5-min Rain = 0
KPD3 142142Z 06004KT 14/M01 A3035 RMK A01 T01391008  RH  036%=      5-min Rain = 0
KPD3 142143Z 08006KT 14/M01 A3035 RMK A01 T01391008  RH  036%=      5-min Rain = 0
KPD3 142144Z 08005KT 14/M01 A3035 RMK A01 T01381008  RH  036%=      5-min Rain = 0
KPD3 142145Z 06003KT 14/M01 A3035 RMK A01 T01391007  RH  037%=      5-min Rain = 0
KPD3 142146Z 06003KT 14/M01 A3035 RMK A01 T01391008  RH  036%=      5-min Rain = 0
KPD3 142147Z 07003KT 14/M01 A3035 RMK A01 T01401008  RH  036%=      5-min Rain = 0
KPD3 142148Z 08005KT 14/M01 A3035 RMK A01 T01391008  RH  036%=      5-min Rain = 0
KPD3 142149Z 07005KT 14/M01 A3035 RMK A01 T01391008  RH  036%=      5-min Rain = 0
KPD3 142150Z 06005KT 14/M01 A3035 RMK A01 T01381008  RH  036%=      5-min Rain = 0
KPD3 142151Z 06005KT 14/M01 A3035 RMK A01 T01381008  RH  037%=      5-min Rain = 0
KPD3 142152Z 03004KT 14/M01 A3035 RMK A01 T01391007  RH  037%=      5-min Rain = 0
KPD3 142153Z 04004KT 14/M01 A3035 RMK A01 T01411007  RH  036%=      5-min Rain = 0
KPD3 142154Z 05003KT 14/M01 A3035 RMK A01 T01421007  RH  036%=      5-min Rain = 0
KPD3 142155Z 05005KT 14/M01 A3035 RMK A01 T01431007  RH  036%=      5-min Rain = 0
KPD3 142156Z 04007KT 14/M01 A3035 RMK A01 T01431007  RH  035%=      5-min Rain = 0
KPD3 142157Z 04006KT 14/M01 A3035 RMK A01 T01421008  RH  036%=      5-min Rain = 0
KPD3 142158Z 03004KT 14/M01 A3035 RMK A01 T01391009  RH  036%=      5-min Rain = 0
KPD3 142159Z 04003KT 14/M01 A3035 RMK A01 T01391008  RH  037%=      5-min Rain = 0
KPD3 142200Z 07002KT 14/M01 A3035 RMK A01 T01391008  RH  036%=      5-min Rain = 0
KPD3 142201Z 07002KT 14/M01 A3035 RMK A01 T01391008  RH  036%=      5-min Rain = 0
KPD3 142202Z 08005KT 14/M01 A3035 RMK A01 T01401007  RH  036%=      5-min Rain = 0
KPD3 142203Z 08005KT 14/M01 A3035 RMK A01 T01411007  RH  036%=      5-min Rain = 0
KPD3 142204Z 12004KT 14/M01 A3035 RMK A01 T01411008  RH  036%=      5-min Rain = 0
KPD3 142205Z 13002KT 14/M01 A3035 RMK A01 T01391009  RH  036%=      5-min Rain = 0
KPD3 142206Z 13003KT 14/M01 A3035 RMK A01 T01381008  RH  036%=      5-min Rain = 0
KPD3 142207Z 08004KT 14/M01 A3035 RMK A01 T01381009  RH  036%=      5-min Rain = 0
KPD3 142208Z 05005KT 14/M01 A3035 RMK A01 T01371009  RH  037%=      5-min Rain = 0
KPD3 142209Z 07004KT 14/M01 A3035 RMK A01 T01371009  RH  037%=      5-min Rain = 0
KPD3 142210Z 09006KT 14/M01 A3035 RMK A01 T01361008  RH  037%=      5-min Rain = 0
KPD3 142211Z 09006KT 14/M01 A3035 RMK A01 T01361008  RH  037%=      5-min Rain = 0
KPD3 142212Z 09005KT 14/M01 A3035 RMK A01 T01371008  RH  037%=      5-min Rain = 0
KPD3 142213Z 10004KT 14/M01 A3035 RMK A01 T01381008  RH  037%=      5-min Rain = 0
KPD3 142214Z 09004KT 14/M01 A3035 RMK A01 T01371007  RH  037%=      5-min Rain = 0
KPD3 142215Z 07007KT 14/M01 A3035 RMK A01 T01381007  RH  037%=      5-min Rain = 0
KPD3 142216Z 07007KT 14/M01 A3035 RMK A01 T01381007  RH  037%=      5-min Rain = 0
KPD3 142217Z 06007KT 14/M01 A3035 RMK A01 T01371008  RH  037%=      5-min Rain = 0
KPD3 142218Z 07006KT 14/M01 A3035 RMK A01 T01361008  RH  037%=      5-min Rain = 0
KPD3 142219Z 06008KT 14/M01 A3035 RMK A01 T01361008  RH  037%=      5-min Rain = 0
KPD3 142220Z 07007KT 14/M01 A3035 RMK A01 T01361008  RH  037%=      5-min Rain = 0
KPD3 142221Z 09007KT 14/M01 A3035 RMK A01 T01351008  RH  037%=      5-min Rain = 0
KPD3 142222Z 08007KT 13/M01 A3035 RMK A01 T01341009  RH  037%=      5-min Rain = 0
KPD3 142223Z 08004KT 13/M01 A3035 RMK A01 T01341009  RH  037%=      5-min Rain = 0
KPD3 142224Z 05003KT 13/M01 A3035 RMK A01 T01331009  RH  038%=      5-min Rain = 0
KPD3 142225Z 07003KT 13/M01 A3035 RMK A01 T01331008  RH  038%=      5-min Rain = 0
KPD3 142226Z 09006KT 13/M01 A3035 RMK A01 T01341008  RH  038%=      5-min Rain = 0
KPD3 142227Z 09004KT 13/M01 A3035 RMK A01 T01341008  RH  037%=      5-min Rain = 0
KPD3 142228Z 10004KT 13/M01 A3035 RMK A01 T01341008  RH  037%=      5-min Rain = 0
KPD3 142229Z 09004KT 13/M01 A3035 RMK A01 T01341008  RH  037%=      5-min Rain = 0
KPD3 142230Z 09006KT 13/M01 A3035 RMK A01 T01341008  RH  038%=      5-min Rain = 0
KPD3 142231Z 10005KT 13/M01 A3035 RMK A01 T01341008  RH  038%=      5-min Rain = 0
KPD3 142232Z 09004KT 13/M01 A3035 RMK A01 T01341008  RH  038%=      5-min Rain = 0
KPD3 142233Z 09005KT 13/M01 A3035 RMK A01 T01331008  RH  038%=      5-min Rain = 0
KPD3 142234Z 10006KT 13/M01 A3035 RMK A01 T01341007  RH  038%=      5-min Rain = 0
KPD3 142235Z 09007KT 13/M01 A3035 RMK A01 T01341007  RH  038%=      5-min Rain = 0
KPD3 142236Z 10007KT 13/M01 A3035 RMK A01 T01331007  RH  038%=      5-min Rain = 0
KPD3 142237Z 11006KT 13/M01 A3035 RMK A01 T01321008  RH  038%=      5-min Rain = 0
KPD3 142238Z 12006KT 13/M01 A3035 RMK A01 T01321008  RH  038%=      5-min Rain = 0
KPD3 142239Z 12007KT 13/M01 A3035 RMK A01 T01321008  RH  038%=      5-min Rain = 0
KPD3 142240Z 12005KT 13/M01 A3035 RMK A01 T01311008  RH  038%=      5-min Rain = 0
KPD3 142241Z 12005KT 13/M01 A3035 RMK A01 T01311008  RH  038%=      5-min Rain = 0
KPD3 142242Z 11005KT 13/M01 A3035 RMK A01 T01311007  RH  038%=      5-min Rain = 0
KPD3 142243Z 11005KT 13/M01 A3035 RMK A01 T01311008  RH  038%=      5-min Rain = 0
KPD3 142244Z 11006KT 13/M01 A3035 RMK A01 T01311008  RH  038%=      5-min Rain = 0
KPD3 142245Z 11007KT 13/M01 A3035 RMK A01 T01311008  RH  038%=      5-min Rain = 0
KPD3 142246Z 11006KT 13/M01 A3035 RMK A01 T01301008  RH  038%=      5-min Rain = 0
KPD3 142247Z 10006KT 13/M01 A3035 RMK A01 T01301008  RH  038%=      5-min Rain = 0
KPD3 142248Z 10005KT 13/M01 A3035 RMK A01 T01301008  RH  038%=      5-min Rain = 0
KPD3 142249Z 09005KT 13/M01 A3035 RMK A01 T01291008  RH  039%=      5-min Rain = 0
KPD3 142250Z 11005KT 13/M01 A3035 RMK A01 T01301008  RH  039%=      5-min Rain = 0
KPD3 142251Z 11006KT 13/M01 A3035 RMK A01 T01291008  RH  039%=      5-min Rain = 0
KPD3 142252Z 11006KT 13/M01 A3035 RMK A01 T01291008  RH  039%=      5-min Rain = 0
KPD3 142253Z 09006KT 13/M01 A3035 RMK A01 T01291008  RH  039%=      5-min Rain = 0
KPD3 142254Z 09007KT 13/M01 A3035 RMK A01 T01281008  RH  039%=      5-min Rain = 0
KPD3 142255Z 09007KT 13/M01 A3035 RMK A01 T01281008  RH  039%=      5-min Rain = 0
KPD3 142256Z 09006KT 13/M01 A3035 RMK A01 T01271008  RH  039%=      5-min Rain = 0
KPD3 142257Z 09007KT 13/M01 A3035 RMK A01 T01271008  RH  039%=      5-min Rain = 0
KPD3 142258Z 09005KT 13/M01 A3035 RMK A01 T01261008  RH  040%=      5-min Rain = 0
KPD3 142259Z 08004KT 13/M01 A3035 RMK A01 T01261008  RH  040%=      5-min Rain = 0
KPD3 142300Z 10005KT 13/M01 A3035 RMK A01 T01251008  RH  040%=      5-min Rain = 0
KPD3 142301Z 10005KT 13/M01 A3035 RMK A01 T01251008  RH  040%=      5-min Rain = 0
KPD3 142302Z 10005KT 12/M01 A3035 RMK A01 T01241008  RH  040%=      5-min Rain = 0
KPD3 142303Z 10004KT 12/M01 A3035 RMK A01 T01241008  RH  040%=      5-min Rain = 0
KPD3 142304Z 10005KT 12/M01 A3035 RMK A01 T01231008  RH  040%=      5-min Rain = 0
KPD3 142305Z 11004KT 12/M01 A3035 RMK A01 T01221008  RH  041%=      5-min Rain = 0
KPD3 142306Z 11005KT 12/M01 A3035 RMK A01 T01211008  RH  041%=      5-min Rain = 0
KPD3 142307Z 11005KT 12/M01 A3035 RMK A01 T01211009  RH  041%=      5-min Rain = 0
KPD3 142308Z 11006KT 12/M01 A3036 RMK A01 T01201009  RH  041%=      5-min Rain = 0
KPD3 142309Z 11006KT 12/M01 A3036 RMK A01 T01201009  RH  041%=      5-min Rain = 0
KPD3 142310Z 11006KT 12/M01 A3036 RMK A01 T01191009  RH  041%=      5-min Rain = 0
KPD3 142311Z 11006KT 12/M01 A3036 RMK A01 T01191009  RH  041%=      5-min Rain = 0
KPD3 142312Z 11006KT 12/M01 A3036 RMK A01 T01191009  RH  041%=      5-min Rain = 0
KPD3 142313Z 11005KT 12/M01 A3036 RMK A01 T01181010  RH  041%=      5-min Rain = 0
KPD3 142314Z 11005KT 12/M01 A3036 RMK A01 T01171010  RH  041%=      5-min Rain = 0
KPD3 142315Z 11005KT 12/M01 A3036 RMK A01 T01161010  RH  041%=      5-min Rain = 0
KPD3 142316Z 11005KT 12/M01 A3036 RMK A01 T01161010  RH  042%=      5-min Rain = 0
KPD3 142317Z 12005KT 12/M01 A3036 RMK A01 T01151010  RH  042%=      5-min Rain = 0
KPD3 142318Z 12005KT 11/M01 A3036 RMK A01 T01141011  RH  042%=      5-min Rain = 0
KPD3 142319Z 12005KT 11/M01 A3036 RMK A01 T01131012  RH  042%=      5-min Rain = 0
KPD3 142320Z 12006KT 11/M01 A3036 RMK A01 T01111012  RH  042%=      5-min Rain = 0
KPD3 142321Z 12005KT 11/M01 A3036 RMK A01 T01101012  RH  043%=      5-min Rain = 0
KPD3 142322Z 12006KT 11/M01 A3036 RMK A01 T01081013  RH  043%=      5-min Rain = 0
KPD3 142323Z 11006KT 11/M01 A3036 RMK A01 T01061013  RH  043%=      5-min Rain = 0
KPD3 142324Z 11006KT 11/M01 A3036 RMK A01 T01051013  RH  044%=      5-min Rain = 0
KPD3 142325Z 11005KT 10/M01 A3036 RMK A01 T01041013  RH  044%=      5-min Rain = 0
KPD3 142326Z 11005KT 10/M01 A3036 RMK A01 T01031013  RH  044%=      5-min Rain = 0
KPD3 142327Z 12005KT 10/M01 A3036 RMK A01 T01011013  RH  045%=      5-min Rain = 0
KPD3 142328Z 11005KT 10/M01 A3036 RMK A01 T01001014  RH  045%=      5-min Rain = 0
KPD3 142329Z 12005KT 10/M01 A3036 RMK A01 T00991014  RH  045%=      5-min Rain = 0
KPD3 142330Z 12006KT 10/M01 A3036 RMK A01 T00981014  RH  046%=      5-min Rain = 0
KPD3 142331Z 11006KT 10/M01 A3036 RMK A01 T00961014  RH  046%=      5-min Rain = 0
KPD3 142332Z 11006KT 10/M01 A3036 RMK A01 T00961014  RH  046%=      5-min Rain = 0
KPD3 142333Z 11005KT 10/M02 A3036 RMK A01 T00951015  RH  046%=      5-min Rain = 0
KPD3 142334Z 11005KT 09/M02 A3036 RMK A01 T00931016  RH  047%=      5-min Rain = 0
KPD3 142335Z 11005KT 09/M02 A3036 RMK A01 T00921016  RH  047%=      5-min Rain = 0
KPD3 142336Z 11005KT 09/M02 A3036 RMK A01 T00901016  RH  047%=      5-min Rain = 0
KPD3 142337Z 11005KT 09/M02 A3036 RMK A01 T00891016  RH  048%=      5-min Rain = 0
KPD3 142338Z 11005KT 09/M02 A3036 RMK A01 T00891015  RH  048%=      5-min Rain = 0
KPD3 142339Z 11005KT 09/M02 A3036 RMK A01 T00881015  RH  048%=      5-min Rain = 0
KPD3 142340Z 10005KT 09/M02 A3037 RMK A01 T00881016  RH  048%=      5-min Rain = 0
KPD3 142341Z 10005KT 09/M02 A3037 RMK A01 T00871016  RH  049%=      5-min Rain = 0
KPD3 142342Z 10005KT 09/M02 A3037 RMK A01 T00871015  RH  049%=      5-min Rain = 0
KPD3 142343Z 10005KT 09/M02 A3037 RMK A01 T00861015  RH  049%=      5-min Rain = 0
KPD3 142344Z 10005KT 09/M02 A3037 RMK A01 T00851016  RH  049%=      5-min Rain = 0
KPD3 142345Z 10005KT 08/M02 A3037 RMK A01 T00841016  RH  049%=      5-min Rain = 0
KPD3 142346Z 10005KT 08/M02 A3037 RMK A01 T00841016  RH  050%=      5-min Rain = 0
KPD3 142347Z 10005KT 08/M02 A3037 RMK A01 T00831015  RH  050%=      5-min Rain = 0
KPD3 142348Z 10005KT 08/M02 A3037 RMK A01 T00831015  RH  050%=      5-min Rain = 0
KPD3 142349Z 10005KT 08/M02 A3037 RMK A01 T00831015  RH  050%=      5-min Rain = 0
KPD3 142350Z 09005KT 08/M02 A3037 RMK A01 T00841015  RH  050%=      5-min Rain = 0
KPD3 142351Z 09005KT 08/M02 A3037 RMK A01 T00841015  RH  050%=      5-min Rain = 0
KPD3 142352Z 10004KT 08/M02 A3037 RMK A01 T00841015  RH  050%=      5-min Rain = 0
KPD3 142353Z 10004KT 08/M02 A3037 RMK A01 T00841015  RH  050%=      5-min Rain = 0
KPD3 142354Z 11003KT 08/M02 A3037 RMK A01 T00841015  RH  050%=      5-min Rain = 0
KPD3 142355Z 11004KT 08/M02 A3037 RMK A01 T00841015  RH  050%=      5-min Rain = 0
KPD3 142356Z 12004KT 08/M02 A3037 RMK A01 T00831015  RH  050%=      5-min Rain = 0
KPD3 142357Z 11004KT 08/M02 A3037 RMK A01 T00831015  RH  050%=      5-min Rain = 0
KPD3 142358Z 11005KT 08/M02 A3037 RMK A01 T00821015  RH  050%=      5-min Rain = 0
KPD3 142359Z 11005KT 08/M02 A3037 RMK A01 T00821015  RH  050%=      5-min Rain = 0
KPD3 150000Z 11005KT 08/M02 A3037 RMK A01 T00821015  RH  050%=      5-min Rain = 0
KPD3 150001Z 11005KT 08/M02 A3037 RMK A01 T00811015  RH  051%=      5-min Rain = 0
KPD3 150002Z 11004KT 08/M02 A3037 RMK A01 T00811015  RH  051%=      5-min Rain = 0
KPD3 150003Z 12004KT 08/M02 A3037 RMK A01 T00801016  RH  051%=      5-min Rain = 0
KPD3 150004Z 12004KT 08/M02 A3037 RMK A01 T00791016  RH  051%=      5-min Rain = 0
KPD3 150005Z 12004KT 08/M02 A3037 RMK A01 T00781016  RH  051%=      5-min Rain = 0
KPD3 150006Z 12005KT 08/M02 A3037 RMK A01 T00781016  RH  051%=      5-min Rain = 0
KPD3 150007Z 12005KT 08/M02 A3037 RMK A01 T00771016  RH  052%=      5-min Rain = 0
KPD3 150008Z 12005KT 08/M02 A3037 RMK A01 T00761016  RH  052%=      5-min Rain = 0
KPD3 150009Z 12005KT 08/M02 A3037 RMK A01 T00751017  RH  052%=      5-min Rain = 0
KPD3 150010Z 11005KT 07/M02 A3037 RMK A01 T00741018  RH  052%=      5-min Rain = 0
KPD3 150011Z 11004KT 07/M02 A3037 RMK A01 T00731019  RH  052%=      5-min Rain = 0
KPD3 150012Z 12004KT 07/M02 A3037 RMK A01 T00721019  RH  052%=      5-min Rain = 0
KPD3 150013Z 12004KT 07/M02 A3037 RMK A01 T00711019  RH  053%=      5-min Rain = 0
KPD3 150014Z 13003KT 07/M02 A3037 RMK A01 T00681020  RH  053%=      5-min Rain = 0
KPD3 150015Z 13003KT 07/M02 A3037 RMK A01 T00661021  RH  054%=      5-min Rain = 0
KPD3 150016Z 13003KT 07/M02 A3037 RMK A01 T00651021  RH  054%=      5-min Rain = 0
KPD3 150017Z 13003KT 06/M02 A3037 RMK A01 T00641020  RH  055%=      5-min Rain = 0
KPD3 150018Z 12003KT 06/M02 A3037 RMK A01 T00641019  RH  055%=      5-min Rain = 0
KPD3 150019Z 12003KT 06/M02 A3037 RMK A01 T00631020  RH  055%=      5-min Rain = 0
KPD3 150020Z 12003KT 06/M02 A3037 RMK A01 T00621019  RH  056%=      5-min Rain = 0
KPD3 150021Z 12003KT 06/M02 A3037 RMK A01 T00621019  RH  056%=      5-min Rain = 0
KPD3 150022Z 11003KT 06/M02 A3038 RMK A01 T00621018  RH  056%=      5-min Rain = 0
KPD3 150023Z 11003KT 06/M02 A3038 RMK A01 T00621019  RH  056%=      5-min Rain = 0
KPD3 150024Z 12002KT 06/M02 A3038 RMK A01 T00611019  RH  056%=      5-min Rain = 0
KPD3 150025Z 12002KT 06/M02 A3038 RMK A01 T00611018  RH  057%=      5-min Rain = 0
KPD3 150026Z 12002KT 06/M02 A3038 RMK A01 T00611019  RH  057%=      5-min Rain = 0
KPD3 150027Z 12002KT 06/M02 A3038 RMK A01 T00601019  RH  057%=      5-min Rain = 0
KPD3 150028Z 13002KT 06/M02 A3038 RMK A01 T00601019  RH  057%=      5-min Rain = 0
KPD3 150029Z 13002KT 06/M02 A3038 RMK A01 T00591021  RH  057%=      5-min Rain = 0
KPD3 150030Z 13002KT 06/M02 A3038 RMK A01 T00591019  RH  057%=      5-min Rain = 0
KPD3 150031Z 13002KT 06/M02 A3038 RMK A01 T00581022  RH  057%=      5-min Rain = 0
KPD3 150032Z 15001KT 05/M03 A3038 RMK A01 T00521029  RH  056%=      5-min Rain = 0
KPD3 150033Z 16001KT 04/M03 A3038 RMK A01 T00441034  RH  057%=      5-min Rain = 0
KPD3 150034Z 15001KT 04/M03 A3038 RMK A01 T00371033  RH  060%=      5-min Rain = 0
KPD3 150035Z 16001KT 03/M03 A3038 RMK A01 T00331032  RH  062%=      5-min Rain = 0
KPD3 150036Z 17001KT 03/M03 A3038 RMK A01 T00311032  RH  063%=      5-min Rain = 0
KPD3 150037Z 16001KT 03/M03 A3038 RMK A01 T00281033  RH  064%=      5-min Rain = 0
KPD3 150038Z 17001KT 03/M03 A3038 RMK A01 T00251034  RH  065%=      5-min Rain = 0
KPD3 150039Z 18001KT 02/M04 A3038 RMK A01 T00231035  RH  066%=      5-min Rain = 0
KPD3 150040Z 17001KT 02/M04 A3038 RMK A01 T00201036  RH  067%=      5-min Rain = 0
KPD3 150041Z 16001KT 02/M04 A3038 RMK A01 T00191035  RH  068%=      5-min Rain = 0
KPD3 150042Z 15001KT 02/M03 A3038 RMK A01 T00181034  RH  069%=      5-min Rain = 0
KPD3 150043Z 14001KT 02/M03 A3038 RMK A01 T00181034  RH  069%=      5-min Rain = 0
KPD3 150044Z 14001KT 02/M03 A3038 RMK A01 T00181034  RH  069%=      5-min Rain = 0
KPD3 150045Z 13000KT 02/M03 A3038 RMK A01 T00171033  RH  069%=      5-min Rain = 0
KPD3 150046Z 13000KT 02/M03 A3038 RMK A01 T00171033  RH  069%=      5-min Rain = 0
KPD3 150047Z 13000KT 02/M03 A3039 RMK A01 T00171033  RH  069%=      5-min Rain = 0
KPD3 150048Z 13001KT 02/M03 A3039 RMK A01 T00181032  RH  070%=      5-min Rain = 0
KPD3 150049Z 13000KT 02/M03 A3039 RMK A01 T00201030  RH  070%=      5-min Rain = 0
KPD3 150050Z 13000KT 02/M03 A3039 RMK A01 T00211029  RH  069%=      5-min Rain = 0
KPD3 150051Z 13000KT 02/M03 A3039 RMK A01 T00221029  RH  069%=      5-min Rain = 0
KPD3 150052Z 23001KT 02/M03 A3039 RMK A01 T00221031  RH  068%=      5-min Rain = 0
KPD3 150053Z 24002KT 02/M03 A3039 RMK A01 T00211033  RH  068%=      5-min Rain = 0
KPD3 150054Z 22001KT 02/M03 A3039 RMK A01 T00201031  RH  069%=      5-min Rain = 0
KPD3 150055Z 23001KT 02/M03 A3039 RMK A01 T00211030  RH  069%=      5-min Rain = 0
KPD3 150056Z 22001KT 02/M03 A3039 RMK A01 T00231029  RH  068%=      5-min Rain = 0
KPD3 150057Z 21001KT 03/M03 A3039 RMK A01 T00251029  RH  068%=      5-min Rain = 0
KPD3 150058Z 22001KT 03/M03 A3039 RMK A01 T00251029  RH  067%=      5-min Rain = 0
KPD3 150059Z 24002KT 03/M03 A3039 RMK A01 T00251030  RH  067%=      5-min Rain = 0
KPD3 150100Z 22002KT 02/M03 A3039 RMK A01 T00241031  RH  067%=      5-min Rain = 0
KPD3 150101Z 21002KT 02/M03 A3039 RMK A01 T00231032  RH  067%=      5-min Rain = 0
KPD3 150102Z 19005KT 02/M03 A3039 RMK A01 T00211033  RH  067%=      5-min Rain = 0
KPD3 150103Z 19004KT 02/M04 A3039 RMK A01 T00181037  RH  067%=      5-min Rain = 0
KPD3 150104Z 20003KT 02/M04 A3039 RMK A01 T00161036  RH  069%=      5-min Rain = 0
KPD3 150105Z 20003KT 02/M03 A3039 RMK A01 T00151034  RH  070%=      5-min Rain = 0
KPD3 150106Z 20003KT 02/M03 A3039 RMK A01 T00161033  RH  070%=      5-min Rain = 0
KPD3 150107Z 20003KT 02/M03 A3039 RMK A01 T00161033  RH  070%=      5-min Rain = 0
KPD3 150108Z 18003KT 02/M03 A3039 RMK A01 T00161033  RH  070%=      5-min Rain = 0
KPD3 150109Z 18003KT 02/M03 A3039 RMK A01 T00151034  RH  070%=      5-min Rain = 0
KPD3 150110Z 18003KT 02/M03 A3039 RMK A01 T00151032  RH  071%=      5-min Rain = 0
KPD3 150111Z 18003KT 02/M03 A3039 RMK A01 T00171031  RH  070%=      5-min Rain = 0
KPD3 150112Z 18003KT 02/M03 A3039 RMK A01 T00181032  RH  070%=      5-min Rain = 0
KPD3 150113Z 18003KT 02/M03 A304 RMK A01 T00181033  RH  069%=      5-min Rain = 0
KPD3 150114Z 18003KT 02/M03 A304 RMK A01 T00171033  RH  069%=      5-min Rain = 0
KPD3 150115Z 18003KT 02/M03 A304 RMK A01 T00161034  RH  069%=      5-min Rain = 0
KPD3 150116Z 18003KT 02/M03 A304 RMK A01 T00151034  RH  070%=      5-min Rain = 0
KPD3 150117Z 18003KT 02/M03 A304 RMK A01 T00151033  RH  070%=      5-min Rain = 0
KPD3 150118Z 18003KT 01/M03 A304 RMK A01 T00141034  RH  070%=      5-min Rain = 0
KPD3 150119Z 19003KT 01/M03 A304 RMK A01 T00141034  RH  071%=      5-min Rain = 0
KPD3 150120Z 19003KT 01/M03 A304 RMK A01 T00141034  RH  071%=      5-min Rain = 0
KPD3 150121Z 19003KT 01/M03 A304 RMK A01 T00141034  RH  071%=      5-min Rain = 0
KPD3 150122Z 19003KT 01/M03 A304 RMK A01 T00141034  RH  071%=      5-min Rain = 0
KPD3 150123Z 19002KT 01/M03 A304 RMK A01 T00131034  RH  071%=      5-min Rain = 0
KPD3 150124Z 19002KT 01/M04 A304 RMK A01 T00121035  RH  071%=      5-min Rain = 0
KPD3 150125Z 20002KT 01/M04 A304 RMK A01 T00111035  RH  071%=      5-min Rain = 0
KPD3 150126Z 21002KT 01/M04 A304 RMK A01 T00101036  RH  072%=      5-min Rain = 0
KPD3 150127Z 22002KT 01/M04 A304 RMK A01 T00091036  RH  072%=      5-min Rain = 0
KPD3 150128Z 23002KT 01/M04 A304 RMK A01 T00071037  RH  072%=      5-min Rain = 0
KPD3 150129Z 23002KT 01/M04 A304 RMK A01 T00061037  RH  073%=      5-min Rain = 0
KPD3 150130Z 23003KT 01/M04 A304 RMK A01 T00051037  RH  073%=      5-min Rain = 0
KPD3 150131Z 23002KT 01/M04 A304 RMK A01 T00051037  RH  074%=      5-min Rain = 0
KPD3 150132Z 23003KT 00/M04 A304 RMK A01 T00041036  RH  074%=      5-min Rain = 0
KPD3 150133Z 24003KT 00/M04 A304 RMK A01 T00041037  RH  074%=      5-min Rain = 0
KPD3 150134Z 24005KT 00/M04 A304 RMK A01 T00031037  RH  074%=      5-min Rain = 0
KPD3 150135Z 24005KT 00/M04 A304 RMK A01 T00021038  RH  075%=      5-min Rain = 0
KPD3 150136Z 22004KT 00/M04 A304 RMK A01 T00011037  RH  075%=      5-min Rain = 0
KPD3 150137Z 21003KT 00/M04 A304 RMK A01 T00011037  RH  075%=      5-min Rain = 0
KPD3 150138Z 24004KT 00/M04 A304 RMK A01 T00021037  RH  075%=      5-min Rain = 0
KPD3 150139Z 23004KT 00/M04 A304 RMK A01 T00011038  RH  075%=      5-min Rain = 0
KPD3 150140Z 22004KT 00/04 A304 RMK A01 T00-00-38  RH  076%=      5-min Rain = 0
KPD3 150141Z 21004KT M00/M04 A304 RMK A01 T10011038  RH  076%=      5-min Rain = 0
KPD3 150142Z 21004KT 00/04 A304 RMK A01 T00-00-37  RH  076%=      5-min Rain = 0
KPD3 150143Z 20004KT 00/04 A304 RMK A01 T00-00-37  RH  076%=      5-min Rain = 0
KPD3 150144Z 20003KT 00/04 A304 RMK A01 T00-00-37  RH  076%=      5-min Rain = 0
KPD3 150145Z 21004KT 00/04 A304 RMK A01 T00-00-37  RH  076%=      5-min Rain = 0
KPD3 150146Z 22004KT 00/04 A304 RMK A01 T00-00-37  RH  076%=      5-min Rain = 0
KPD3 150147Z 22004KT 00/04 A3041 RMK A01 T00-00-37  RH  076%=      5-min Rain = 0
KPD3 150148Z 22004KT 00/04 A3041 RMK A01 T00000-36  RH  077%=      5-min Rain = 0
KPD3 150149Z 23004KT 00/M03 A3041 RMK A01 T00021034  RH  077%=      5-min Rain = 0
KPD3 150150Z 23004KT 00/M03 A3041 RMK A01 T00031033  RH  076%=      5-min Rain = 0
KPD3 150151Z 24004KT 00/M03 A3041 RMK A01 T00041034  RH  075%=      5-min Rain = 0
KPD3 150152Z 24004KT 00/M04 A304 RMK A01 T00041035  RH  075%=      5-min Rain = 0
KPD3 150153Z 24004KT 00/M04 A304 RMK A01 T00031037  RH  075%=      5-min Rain = 0
KPD3 150154Z 24004KT 00/M04 A304 RMK A01 T00021037  RH  075%=      5-min Rain = 0
KPD3 150155Z 24003KT 00/04 A304 RMK A01 T00000-37  RH  076%=      5-min Rain = 0
KPD3 150156Z 24003KT 00/04 A304 RMK A01 T00-00-37  RH  076%=      5-min Rain = 0
KPD3 150157Z 23003KT 00/04 A304 RMK A01 T00-00-36  RH  077%=      5-min Rain = 0
KPD3 150158Z 23004KT 00/04 A304 RMK A01 T00-00-36  RH  077%=      5-min Rain = 0
KPD3 150159Z 23003KT 00/04 A304 RMK A01 T00-00-36  RH  077%=      5-min Rain = 0
KPD3 150200Z 22003KT 00/04 A304 RMK A01 T00-00-36  RH  077%=      5-min Rain = 0
KPD3 150201Z 23003KT 00/04 A304 RMK A01 T00000-35  RH  077%=      5-min Rain = 0
KPD3 150202Z 23003KT 00/M03 A304 RMK A01 T00011034  RH  077%=      5-min Rain = 0
KPD3 150203Z 23003KT 00/M04 A304 RMK A01 T00011035  RH  077%=      5-min Rain = 0
KPD3 150204Z 23003KT 00/M04 A304 RMK A01 T00011035  RH  077%=      5-min Rain = 0
KPD3 150205Z 23003KT 00/M04 A304 RMK A01 T00011035  RH  077%=      5-min Rain = 0
KPD3 150206Z 22003KT 00/M03 A304 RMK A01 T00021034  RH  077%=      5-min Rain = 0
KPD3 150207Z 22002KT 00/M03 A304 RMK A01 T00021034  RH  076%=      5-min Rain = 0
KPD3 150208Z 22002KT 00/M04 A304 RMK A01 T00021035  RH  076%=      5-min Rain = 0
KPD3 150209Z 23002KT 00/M04 A304 RMK A01 T00021035  RH  076%=      5-min Rain = 0
KPD3 150210Z 24002KT 00/M04 A304 RMK A01 T00011036  RH  076%=      5-min Rain = 0
KPD3 150211Z 24002KT 00/M04 A304 RMK A01 T00011036  RH  076%=      5-min Rain = 0
KPD3 150212Z 24002KT 00/04 A304 RMK A01 T00-00-37  RH  076%=      5-min Rain = 0
KPD3 150213Z 25002KT M00/M04 A304 RMK A01 T10011037  RH  077%=      5-min Rain = 0
KPD3 150214Z 25003KT M00/M04 A304 RMK A01 T10021037  RH  077%=      5-min Rain = 0
KPD3 150215Z 25003KT M00/M04 A304 RMK A01 T10021036  RH  078%=      5-min Rain = 0
KPD3 150216Z 25003KT M00/M04 A304 RMK A01 T10011035  RH  078%=      5-min Rain = 0
KPD3 150217Z 26003KT M00/M04 A304 RMK A01 T10011035  RH  078%=      5-min Rain = 0
KPD3 150218Z 26003KT 00/04 A304 RMK A01 T00-00-35  RH  077%=      5-min Rain = 0
KPD3 150219Z 27003KT 00/04 A304 RMK A01 T00-00-36  RH  077%=      5-min Rain = 0
KPD3 150220Z 26003KT M00/M04 A304 RMK A01 T10021038  RH  077%=      5-min Rain = 0
KPD3 150221Z 26003KT M00/M04 A3041 RMK A01 T10031036  RH  078%=      5-min Rain = 0
KPD3 150222Z 26003KT M00/M03 A3041 RMK A01 T10021034  RH  079%=      5-min Rain = 0
KPD3 150223Z 25003KT M00/M03 A3041 RMK A01 T10011033  RH  078%=      5-min Rain = 0
KPD3 150224Z 25003KT 00/03 A3041 RMK A01 T00000-34  RH  078%=      5-min Rain = 0
KPD3 150225Z 25004KT 00/M03 A3041 RMK A01 T00011034  RH  077%=      5-min Rain = 0
KPD3 150226Z 25004KT M00/M04 A3041 RMK A01 T10011037  RH  077%=      5-min Rain = 0
KPD3 150227Z 25004KT M00/M04 A3041 RMK A01 T10031039  RH  077%=      5-min Rain = 0
KPD3 150228Z 26004KT M01/M04 A3041 RMK A01 T10051040  RH  077%=      5-min Rain = 0
KPD3 150229Z 26004KT M01/M04 A3041 RMK A01 T10071041  RH  078%=      5-min Rain = 0
KPD3 150230Z 26004KT M01/M04 A3041 RMK A01 T10081041  RH  078%=      5-min Rain = 0
KPD3 150231Z 26004KT M01/M04 A3041 RMK A01 T10091040  RH  079%=      5-min Rain = 0
KPD3 150232Z 26004KT M01/M04 A3041 RMK A01 T10091039  RH  080%=      5-min Rain = 0
KPD3 150233Z 26004KT M01/M03 A3041 RMK A01 T10061034  RH  081%=      5-min Rain = 0
KPD3 150234Z 26005KT M00/M03 A3041 RMK A01 T10011030  RH  081%=      5-min Rain = 0
KPD3 150235Z 26005KT 00/M03 A3041 RMK A01 T00021031  RH  079%=      5-min Rain = 0
KPD3 150236Z 26005KT 00/M03 A3041 RMK A01 T00031033  RH  077%=      5-min Rain = 0
KPD3 150237Z 26006KT 00/M03 A3041 RMK A01 T00021034  RH  077%=      5-min Rain = 0
KPD3 150238Z 26006KT 00/04 A3041 RMK A01 T00000-36  RH  077%=      5-min Rain = 0
KPD3 150239Z 26006KT M00/M04 A3041 RMK A01 T10011036  RH  077%=      5-min Rain = 0
KPD3 150240Z 26006KT M00/M04 A3041 RMK A01 T10021036  RH  078%=      5-min Rain = 0
KPD3 150241Z 26006KT M00/M04 A3041 RMK A01 T10031036  RH  078%=      5-min Rain = 0
KPD3 150242Z 26006KT M00/M04 A3041 RMK A01 T10041037  RH  078%=      5-min Rain = 0
KPD3 150243Z 26006KT M01/M04 A3041 RMK A01 T10051038  RH  079%=      5-min Rain = 0
KPD3 150244Z 26006KT M01/M04 A3041 RMK A01 T10071039  RH  079%=      5-min Rain = 0
KPD3 150245Z 26006KT M01/M04 A3041 RMK A01 T10071038  RH  080%=      5-min Rain = 0
KPD3 150246Z 26005KT M01/M04 A3041 RMK A01 T10071038  RH  080%=      5-min Rain = 0
KPD3 150247Z 26005KT M01/M04 A3041 RMK A01 T10071038  RH  080%=      5-min Rain = 0
KPD3 150248Z 26005KT M01/M04 A3041 RMK A01 T10081038  RH  080%=      5-min Rain = 0
KPD3 150249Z 26005KT M01/M04 A3041 RMK A01 T10081039  RH  080%=      5-min Rain = 0
KPD3 150250Z 26005KT M01/M04 A3041 RMK A01 T10091038  RH  080%=      5-min Rain = 0
KPD3 150251Z 26005KT M01/M04 A3041 RMK A01 T10091037  RH  081%=      5-min Rain = 0
KPD3 150252Z 26005KT M01/M04 A3042 RMK A01 T10081037  RH  081%=      5-min Rain = 0
KPD3 150253Z 26005KT M01/M04 A3042 RMK A01 T10081036  RH  081%=      5-min Rain = 0
KPD3 150254Z 26005KT M01/M04 A3042 RMK A01 T10071035  RH  081%=      5-min Rain = 0
KPD3 150255Z 26004KT M01/M04 A3042 RMK A01 T10061035  RH  081%=      5-min Rain = 0
KPD3 150256Z 26004KT M01/M04 A3042 RMK A01 T10061036  RH  080%=      5-min Rain = 0
KPD3 150257Z 26004KT M01/M04 A3042 RMK A01 T10061036  RH  081%=      5-min Rain = 0
KPD3 150258Z 26005KT M01/M04 A3042 RMK A01 T10061035  RH  081%=      5-min Rain = 0
KPD3 150259Z 26005KT M01/M04 A3042 RMK A01 T10061035  RH  081%=      5-min Rain = 0
KPD3 150300Z 26005KT M01/M04 A3042 RMK A01 T10061035  RH  081%=      5-min Rain = 0
KPD3 150301Z 26004KT M01/M03 A3042 RMK A01 T10051034  RH  081%=      5-min Rain = 0
KPD3 150302Z 26004KT M01/M03 A3042 RMK A01 T10051034  RH  081%=      5-min Rain = 0
KPD3 150303Z 26004KT M00/M03 A3042 RMK A01 T10041034  RH  080%=      5-min Rain = 0
KPD3 150304Z 27004KT M00/M04 A3042 RMK A01 T10041035  RH  080%=      5-min Rain = 0
KPD3 150305Z 28004KT M01/M04 A3042 RMK A01 T10051036  RH  080%=      5-min Rain = 0
KPD3 150306Z 27004KT M01/M04 A3042 RMK A01 T10071037  RH  080%=      5-min Rain = 0
KPD3 150307Z 28004KT M01/M04 A3042 RMK A01 T10071038  RH  080%=      5-min Rain = 0
KPD3 150308Z 28004KT M01/M04 A3042 RMK A01 T10091039  RH  080%=      5-min Rain = 0
KPD3 150309Z 28004KT M01/M04 A3042 RMK A01 T10101039  RH  081%=      5-min Rain = 0
KPD3 150310Z 28003KT M01/M04 A3042 RMK A01 T10101039  RH  081%=      5-min Rain = 0
KPD3 150311Z 28003KT M01/M04 A3042 RMK A01 T10111039  RH  081%=      5-min Rain = 0
KPD3 150312Z 28003KT M01/M04 A3042 RMK A01 T10111039  RH  082%=      5-min Rain = 0
KPD3 150313Z 28003KT M01/M04 A3042 RMK A01 T10121039  RH  082%=      5-min Rain = 0
KPD3 150314Z 28003KT M01/M04 A3042 RMK A01 T10121039  RH  082%=      5-min Rain = 0
KPD3 150315Z 28003KT M01/M04 A3042 RMK A01 T10121038  RH  082%=      5-min Rain = 0
KPD3 150316Z 28003KT M01/M04 A3042 RMK A01 T10121038  RH  082%=      5-min Rain = 0
KPD3 150317Z 28003KT M01/M04 A3042 RMK A01 T10111037  RH  083%=      5-min Rain = 0
KPD3 150318Z 28003KT M01/M04 A3042 RMK A01 T10121038  RH  083%=      5-min Rain = 0
KPD3 150319Z 27003KT M01/M04 A3042 RMK A01 T10121037  RH  083%=      5-min Rain = 0
KPD3 150320Z 27003KT M01/M04 A3042 RMK A01 T10121037  RH  083%=      5-min Rain = 0
KPD3 150321Z 28003KT M01/M04 A3042 RMK A01 T10121038  RH  083%=      5-min Rain = 0
KPD3 150322Z 28003KT M01/M04 A3042 RMK A01 T10111037  RH  082%=      5-min Rain = 0
KPD3 150323Z 28002KT M01/M04 A3042 RMK A01 T10101038  RH  081%=      5-min Rain = 0
KPD3 150324Z 28002KT M01/M04 A3042 RMK A01 T10111040  RH  080%=      5-min Rain = 0
KPD3 150325Z 28001KT M01/M04 A3042 RMK A01 T10121042  RH  080%=      5-min Rain = 0
KPD3 150326Z 28001KT M01/M04 A3042 RMK A01 T10131043  RH  080%=      5-min Rain = 0
KPD3 150327Z 28001KT M01/M04 A3042 RMK A01 T10141043  RH  081%=      5-min Rain = 0
KPD3 150328Z 28002KT M01/M04 A3042 RMK A01 T10141040  RH  083%=      5-min Rain = 0
KPD3 150329Z 27002KT M01/M04 A3042 RMK A01 T10101035  RH  083%=      5-min Rain = 0
KPD3 150330Z 27002KT M01/M04 A3042 RMK A01 T10091035  RH  082%=      5-min Rain = 0
KPD3 150331Z 27001KT M01/M04 A3042 RMK A01 T10071035  RH  081%=      5-min Rain = 0
KPD3 150332Z 27000KT M01/M04 A3042 RMK A01 T10071038  RH  080%=      5-min Rain = 0
KPD3 150333Z 27000KT M01/M04 A3042 RMK A01 T10091043  RH  078%=      5-min Rain = 0
KPD3 150334Z 27001KT M01/M04 A3042 RMK A01 T10111043  RH  079%=      5-min Rain = 0
KPD3 150335Z 27001KT M01/M05 A3042 RMK A01 T10131045  RH  079%=      5-min Rain = 0
KPD3 150336Z 27001KT M01/M05 A3042 RMK A01 T10141046  RH  079%=      5-min Rain = 0
KPD3 150337Z 27001KT M02/M04 A3042 RMK A01 T10151044  RH  081%=      5-min Rain = 0
KPD3 150338Z 28001KT M02/M04 A3042 RMK A01 T10151041  RH  082%=      5-min Rain = 0
KPD3 150339Z 28001KT M01/M04 A3042 RMK A01 T10141040  RH  083%=      5-min Rain = 0
KPD3 150340Z 00000KT M01/M04 A3042 RMK A01 T10131039  RH  083%=      5-min Rain = 0
KPD3 150341Z 00000KT M01/M04 A3042 RMK A01 T10131039  RH  082%=      5-min Rain = 0
KPD3 150342Z 00000KT M01/M04 A3042 RMK A01 T10131039  RH  082%=      5-min Rain = 0
KPD3 150343Z 00000KT M01/M04 A3042 RMK A01 T10121039  RH  082%=      5-min Rain = 0
KPD3 150344Z 00000KT M01/M04 A3042 RMK A01 T10121039  RH  082%=      5-min Rain = 0
KPD3 150345Z 05001KT M01/M04 A3042 RMK A01 T10121040  RH  082%=      5-min Rain = 0
KPD3 150346Z 05002KT M01/M04 A3042 RMK A01 T10121041  RH  081%=      5-min Rain = 0
KPD3 150347Z 04002KT M01/M04 A3042 RMK A01 T10141042  RH  081%=      5-min Rain = 0
KPD3 150348Z 04002KT M02/M04 A3042 RMK A01 T10161044  RH  081%=      5-min Rain = 0
KPD3 150349Z 05002KT M02/M05 A3042 RMK A01 T10181045  RH  082%=      5-min Rain = 0
KPD3 150350Z 05002KT M02/M04 A3042 RMK A01 T10181043  RH  083%=      5-min Rain = 0
KPD3 150351Z 04001KT M02/M04 A3042 RMK A01 T10181042  RH  084%=      5-min Rain = 0
KPD3 150352Z 04001KT M02/M04 A3042 RMK A01 T10181041  RH  084%=      5-min Rain = 0
KPD3 150353Z 04001KT M02/M04 A3042 RMK A01 T10181041  RH  084%=      5-min Rain = 0
KPD3 150354Z 04001KT M02/M04 A3042 RMK A01 T10181041  RH  084%=      5-min Rain = 0
KPD3 150355Z 04001KT M02/M04 A3042 RMK A01 T10171041  RH  084%=      5-min Rain = 0
KPD3 150356Z 04001KT M02/M04 A3042 RMK A01 T10171041  RH  084%=      5-min Rain = 0
KPD3 150357Z 03001KT M02/M04 A3042 RMK A01 T10181042  RH  084%=      5-min Rain = 0
KPD3 150358Z 02002KT M02/M04 A3042 RMK A01 T10181041  RH  084%=      5-min Rain = 0
KPD3 150359Z 02002KT M02/M04 A3042 RMK A01 T10171041  RH  084%=      5-min Rain = 0
KPD3 150400Z 03002KT M02/M04 A3042 RMK A01 T10161039  RH  084%=      5-min Rain = 0
KPD3 150401Z 03002KT M02/M04 A3042 RMK A01 T10151038  RH  084%=      5-min Rain = 0
KPD3 150402Z 03002KT M01/M04 A3042 RMK A01 T10141038  RH  083%=      5-min Rain = 0
KPD3 150403Z 03001KT M01/M04 A3042 RMK A01 T10131038  RH  083%=      5-min Rain = 0
KPD3 150404Z 03001KT M01/M04 A3042 RMK A01 T10131038  RH  083%=      5-min Rain = 0
KPD3 150405Z 03001KT M01/M04 A3042 RMK A01 T10121038  RH  083%=      5-min Rain = 0
KPD3 150406Z 02001KT M01/M04 A3042 RMK A01 T10121038  RH  083%=      5-min Rain = 0
KPD3 150407Z 02001KT M01/M04 A3042 RMK A01 T10121039  RH  082%=      5-min Rain = 0
KPD3 150408Z 02002KT M01/M04 A3042 RMK A01 T10141040  RH  082%=      5-min Rain = 0
KPD3 150409Z 02001KT M01/M04 A3042 RMK A01 T10141039  RH  083%=      5-min Rain = 0
KPD3 150410Z 02001KT M01/M04 A3042 RMK A01 T10131037  RH  084%=      5-min Rain = 0
KPD3 150411Z 02001KT M01/M04 A3042 RMK A01 T10111035  RH  084%=      5-min Rain = 0
KPD3 150412Z 02001KT M01/M03 A3042 RMK A01 T10101034  RH  084%=      5-min Rain = 0
KPD3 150413Z 02001KT M01/M04 A3042 RMK A01 T10101036  RH  082%=      5-min Rain = 0
KPD3 150414Z 02001KT M01/M04 A3042 RMK A01 T10111038  RH  082%=      5-min Rain = 0
KPD3 150415Z 02001KT M01/M04 A3042 RMK A01 T10121039  RH  082%=      5-min Rain = 0
KPD3 150416Z 02001KT M01/M04 A3042 RMK A01 T10131039  RH  083%=      5-min Rain = 0
KPD3 150417Z 02001KT M01/M04 A3042 RMK A01 T10141039  RH  083%=      5-min Rain = 0
KPD3 150418Z 02002KT M02/M04 A3042 RMK A01 T10151038  RH  084%=      5-min Rain = 0
KPD3 150419Z 02002KT M02/M04 A3042 RMK A01 T10151037  RH  084%=      5-min Rain = 0
KPD3 150420Z 02002KT M01/M04 A3042 RMK A01 T10141036  RH  085%=      5-min Rain = 0
KPD3 150421Z 02002KT M01/M04 A3042 RMK A01 T10131035  RH  085%=      5-min Rain = 0
KPD3 150422Z 02002KT M01/M04 A3042 RMK A01 T10121035  RH  085%=      5-min Rain = 0
KPD3 150423Z 02002KT M01/M04 A3042 RMK A01 T10121035  RH  084%=      5-min Rain = 0
KPD3 150424Z 02002KT M01/M04 A3042 RMK A01 T10121035  RH  084%=      5-min Rain = 0
KPD3 150425Z 02002KT M01/M04 A3042 RMK A01 T10121036  RH  084%=      5-min Rain = 0
KPD3 150426Z 02002KT M01/M04 A3042 RMK A01 T10121036  RH  084%=      5-min Rain = 0
KPD3 150427Z 01002KT M01/M04 A3042 RMK A01 T10131036  RH  084%=      5-min Rain = 0
KPD3 150428Z 01001KT M01/M04 A3042 RMK A01 T10131036  RH  084%=      5-min Rain = 0
KPD3 150429Z 01001KT M01/M04 A3042 RMK A01 T10131036  RH  084%=      5-min Rain = 0
KPD3 150430Z 01001KT M01/M04 A3042 RMK A01 T10141036  RH  085%=      5-min Rain = 0
KPD3 150431Z 02001KT M01/M04 A3042 RMK A01 T10141037  RH  085%=      5-min Rain = 0
KPD3 150432Z 03002KT M01/M04 A3042 RMK A01 T10141036  RH  085%=      5-min Rain = 0
KPD3 150433Z 04002KT M01/M04 A3042 RMK A01 T10141036  RH  085%=      5-min Rain = 0
KPD3 150434Z 04002KT M01/M04 A3042 RMK A01 T10141037  RH  085%=      5-min Rain = 0
KPD3 150435Z 05002KT M01/M04 A3042 RMK A01 T10141037  RH  085%=      5-min Rain = 0
KPD3 150436Z 05002KT M02/M04 A3042 RMK A01 T10151038  RH  084%=      5-min Rain = 0
KPD3 150437Z 05002KT M02/M04 A3042 RMK A01 T10161039  RH  084%=      5-min Rain = 0
KPD3 150438Z 05002KT M02/M04 A3042 RMK A01 T10161039  RH  084%=      5-min Rain = 0
KPD3 150439Z 05002KT M02/M04 A3042 RMK A01 T10171040  RH  084%=      5-min Rain = 0
KPD3 150440Z 05001KT M02/M04 A3042 RMK A01 T10181041  RH  084%=      5-min Rain = 0
KPD3 150441Z 05002KT M02/M04 A3042 RMK A01 T10201042  RH  085%=      5-min Rain = 0
KPD3 150442Z 06001KT M02/M04 A3042 RMK A01 T10211043  RH  085%=      5-min Rain = 0
KPD3 150443Z 05001KT M02/M04 A3042 RMK A01 T10221044  RH  085%=      5-min Rain = 0
KPD3 150444Z 03001KT M02/M04 A3042 RMK A01 T10231044  RH  086%=      5-min Rain = 0
KPD3 150445Z 03001KT M02/M05 A3042 RMK A01 T10241045  RH  086%=      5-min Rain = 0
KPD3 150446Z 02001KT M03/M05 A3042 RMK A01 T10251046  RH  086%=      5-min Rain = 0
KPD3 150447Z 35001KT M03/M05 A3042 RMK A01 T10271047  RH  086%=      5-min Rain = 0
KPD3 150448Z 33001KT M03/M05 A3042 RMK A01 T10281048  RH  086%=      5-min Rain = 0
KPD3 150449Z 32001KT M03/M05 A3042 RMK A01 T10291048  RH  087%=      5-min Rain = 0
KPD3 150450Z 30002KT M03/M05 A3042 RMK A01 T10301048  RH  087%=      5-min Rain = 0
KPD3 150451Z 29002KT M03/M05 A3042 RMK A01 T10301047  RH  088%=      5-min Rain = 0
KPD3 150452Z 29002KT M03/M05 A3042 RMK A01 T10301047  RH  088%=      5-min Rain = 0
KPD3 150453Z 30001KT M03/M05 A3042 RMK A01 T10301047  RH  089%=      5-min Rain = 0
KPD3 150454Z 30001KT M03/M05 A3042 RMK A01 T10301046  RH  089%=      5-min Rain = 0
KPD3 150455Z 30000KT M03/M05 A3042 RMK A01 T10301046  RH  089%=      5-min Rain = 0
KPD3 150456Z 00000KT M03/M05 A3042 RMK A01 T10301046  RH  089%=      5-min Rain = 0
KPD3 150457Z 00000KT M03/M05 A3042 RMK A01 T10291045  RH  089%=      5-min Rain = 0
KPD3 150458Z 00000KT M03/M05 A3042 RMK A01 T10291045  RH  088%=      5-min Rain = 0
KPD3 150459Z 00000KT M03/M05 A3042 RMK A01 T10291046  RH  088%=      5-min Rain = 0
KPD3 150500Z 00000KT M03/M05 A3042 RMK A01 T10291047  RH  088%=      5-min Rain = 0
KPD3 150501Z 30000KT M03/M05 A3043 RMK A01 T10291047  RH  087%=      5-min Rain = 0
KPD3 150502Z 30000KT M03/M05 A3043 RMK A01 T10301048  RH  087%=      5-min Rain = 0
KPD3 150503Z 00000KT M03/M05 A3042 RMK A01 T10301047  RH  088%=      5-min Rain = 0
KPD3 150504Z 00000KT M03/M05 A3042 RMK A01 T10301047  RH  088%=      5-min Rain = 0
KPD3 150505Z 00000KT M03/M05 A3042 RMK A01 T10301048  RH  087%=      5-min Rain = 0
KPD3 150506Z 00000KT M03/M05 A3042 RMK A01 T10311049  RH  087%=      5-min Rain = 0
KPD3 150507Z 00000KT M03/M05 A3042 RMK A01 T10311050  RH  087%=      5-min Rain = 0
KPD3 150508Z 00000KT M03/M05 A3042 RMK A01 T10311050  RH  087%=      5-min Rain = 0
KPD3 150509Z 00000KT M03/M05 A3042 RMK A01 T10291045  RH  089%=      5-min Rain = 0
KPD3 150510Z 00000KT M03/M04 A3042 RMK A01 T10271043  RH  088%=      5-min Rain = 0
KPD3 150511Z 00000KT M03/M05 A3042 RMK A01 T10271046  RH  087%=      5-min Rain = 0
KPD3 150512Z 00000KT M03/M05 A3042 RMK A01 T10271046  RH  087%=      5-min Rain = 0
KPD3 150513Z 00000KT M03/M05 A3042 RMK A01 T10281047  RH  086%=      5-min Rain = 0
KPD3 150514Z 00000KT M03/M05 A3042 RMK A01 T10281047  RH  087%=      5-min Rain = 0
KPD3 150515Z 00000KT M03/M05 A3042 RMK A01 T10281048  RH  087%=      5-min Rain = 0
KPD3 150516Z 00000KT M03/M05 A3042 RMK A01 T10291048  RH  087%=      5-min Rain = 0
KPD3 150517Z 00000KT M03/M05 A3042 RMK A01 T10301049  RH  087%=      5-min Rain = 0
KPD3 150518Z 00000KT M03/M05 A3042 RMK A01 T10301049  RH  087%=      5-min Rain = 0
KPD3 150519Z 00000KT M03/M05 A3042 RMK A01 T10311049  RH  087%=      5-min Rain = 0
KPD3 150520Z 00000KT M03/M05 A3042 RMK A01 T10311049  RH  088%=      5-min Rain = 0
KPD3 150521Z 30000KT M03/M05 A3043 RMK A01 T10311048  RH  088%=      5-min Rain = 0
KPD3 150522Z 30000KT M03/M05 A3043 RMK A01 T10311048  RH  088%=      5-min Rain = 0
KPD3 150523Z 30001KT M03/M05 A3043 RMK A01 T10311047  RH  089%=      5-min Rain = 0
KPD3 150524Z 30001KT M03/M05 A3043 RMK A01 T10311047  RH  089%=      5-min Rain = 0
KPD3 150525Z 30001KT M03/M05 A3043 RMK A01 T10311046  RH  089%=      5-min Rain = 0
KPD3 150526Z 30001KT M03/M05 A3043 RMK A01 T10311046  RH  089%=      5-min Rain = 0
KPD3 150527Z 30001KT M03/M05 A3043 RMK A01 T10311047  RH  089%=      5-min Rain = 0
KPD3 150528Z 29001KT M03/M05 A3043 RMK A01 T10311047  RH  089%=      5-min Rain = 0
KPD3 150529Z 29001KT M03/M05 A3043 RMK A01 T10311048  RH  088%=      5-min Rain = 0
KPD3 150530Z 28002KT M03/M05 A3043 RMK A01 T10311048  RH  088%=      5-min Rain = 0
KPD3 150531Z 28002KT M03/M05 A3043 RMK A01 T10311047  RH  089%=      5-min Rain = 0
KPD3 150532Z 27003KT M03/M05 A3043 RMK A01 T10311047  RH  089%=      5-min Rain = 0
KPD3 150533Z 28003KT M03/M05 A3043 RMK A01 T10301046  RH  089%=      5-min Rain = 0
KPD3 150534Z 28003KT M03/M04 A3043 RMK A01 T10281044  RH  089%=      5-min Rain = 0
KPD3 150535Z 27004KT M03/M04 A3043 RMK A01 T10271043  RH  089%=      5-min Rain = 0
KPD3 150536Z 27004KT M03/M04 A3043 RMK A01 T10251042  RH  089%=      5-min Rain = 0
KPD3 150537Z 27004KT M02/M04 A3043 RMK A01 T10231040  RH  089%=      5-min Rain = 0
KPD3 150538Z 26005KT M02/M04 A3043 RMK A01 T10221040  RH  087%=      5-min Rain = 0
KPD3 150539Z 26005KT M02/M04 A3043 RMK A01 T10221042  RH  086%=      5-min Rain = 0
KPD3 150540Z 26005KT M02/M04 A3043 RMK A01 T10231043  RH  086%=      5-min Rain = 0
KPD3 150541Z 26005KT M02/M04 A3043 RMK A01 T10241044  RH  086%=      5-min Rain = 0
KPD3 150542Z 26004KT M03/M05 A3043 RMK A01 T10251045  RH  086%=      5-min Rain = 0
KPD3 150543Z 26004KT M03/M05 A3043 RMK A01 T10261045  RH  087%=      5-min Rain = 0
KPD3 150544Z 25003KT M03/M05 A3043 RMK A01 T10271046  RH  087%=      5-min Rain = 0
KPD3 150545Z 24003KT M03/M05 A3043 RMK A01 T10271045  RH  087%=      5-min Rain = 0
KPD3 150546Z 24003KT M03/M05 A3043 RMK A01 T10281046  RH  087%=      5-min Rain = 0
KPD3 150547Z 23002KT M03/M05 A3043 RMK A01 T10271045  RH  088%=      5-min Rain = 0
KPD3 150548Z 23002KT M03/M04 A3043 RMK A01 T10261044  RH  088%=      5-min Rain = 0
KPD3 150549Z 23002KT M03/M05 A3043 RMK A01 T10261045  RH  087%=      5-min Rain = 0
KPD3 150550Z 24003KT M03/M05 A3043 RMK A01 T10261046  RH  086%=      5-min Rain = 0
KPD3 150551Z 25003KT M03/M05 A3043 RMK A01 T10261047  RH  086%=      5-min Rain = 0
KPD3 150552Z 25003KT M03/M05 A3043 RMK A01 T10271048  RH  086%=      5-min Rain = 0
KPD3 150553Z 24002KT M03/M05 A3043 RMK A01 T10281048  RH  086%=      5-min Rain = 0
KPD3 150554Z 23002KT M03/M05 A3043 RMK A01 T10281048  RH  087%=      5-min Rain = 0
KPD3 150555Z 23002KT M03/M05 A3043 RMK A01 T10291047  RH  087%=      5-min Rain = 0
KPD3 150556Z 23001KT M03/M05 A3043 RMK A01 T10291047  RH  087%=      5-min Rain = 0
KPD3 150557Z 21001KT M03/M05 A3043 RMK A01 T10291047  RH  087%=      5-min Rain = 0
KPD3 150558Z 21001KT M03/M05 A3043 RMK A01 T10291047  RH  088%=      5-min Rain = 0
KPD3 150559Z 21001KT M03/M05 A3043 RMK A01 T10291047  RH  088%=      5-min Rain = 0

Page generated in 0.1311 seconds.